<?xml version="1.0" encoding="UTF-8" standalone="no" ?>
<gpx xmlns="http://www.topografix.com/GPX/1/1" xmlns:xsi="http://www.w3.org/2001/XMLSchema-instance" xsi:schemaLocation="http://www.topografix.com/GPX/1/1 http://www.topografix.com/GPX/1/1/gpx.xsd" version="1.1" creator="VisuGPX - https://www.visugpx.com">
  <metadata>
    <name>20220908</name>
  </metadata>
  <trk>
    <name><![CDATA[2022-08-31 15:55:27]]></name>
    <extensions>
      <line xmlns="http://www.topografix.com/GPX/gpx_style/0/2">
        <color>0000FF</color>
        <width>4</width>
      </line>
    </extensions>
    <trkseg>
      <trkpt lat="49.30542" lon="1.158">
        <ele>7.63</ele>
        <time>2022-08-31T08:48:05Z</time>
      </trkpt>
      <trkpt lat="49.30542" lon="1.158">
        <ele>7.7</ele>
        <time>2022-08-31T08:48:06Z</time>
      </trkpt>
      <trkpt lat="49.30539" lon="1.15798">
        <ele>7.52</ele>
        <time>2022-08-31T08:48:30Z</time>
      </trkpt>
      <trkpt lat="49.30537" lon="1.158">
        <ele>7.53</ele>
        <time>2022-08-31T08:48:52Z</time>
      </trkpt>
      <trkpt lat="49.30536" lon="1.15801">
        <ele>7.69</ele>
        <time>2022-08-31T08:49:14Z</time>
      </trkpt>
      <trkpt lat="49.30538" lon="1.15802">
        <ele>7.7</ele>
        <time>2022-08-31T08:49:17Z</time>
      </trkpt>
      <trkpt lat="49.30543" lon="1.1582">
        <ele>7.68</ele>
        <time>2022-08-31T08:49:29Z</time>
      </trkpt>
      <trkpt lat="49.30546" lon="1.1585">
        <ele>7.47</ele>
        <time>2022-08-31T08:49:50Z</time>
      </trkpt>
      <trkpt lat="49.30546" lon="1.15852">
        <ele>7.46</ele>
        <time>2022-08-31T08:49:53Z</time>
      </trkpt>
      <trkpt lat="49.30546" lon="1.15856">
        <ele>7.41</ele>
        <time>2022-08-31T08:49:56Z</time>
      </trkpt>
      <trkpt lat="49.30545" lon="1.15875">
        <ele>7.3</ele>
        <time>2022-08-31T08:50:07Z</time>
      </trkpt>
      <trkpt lat="49.30544" lon="1.15887">
        <ele>7.58</ele>
        <time>2022-08-31T08:50:20Z</time>
      </trkpt>
      <trkpt lat="49.30543" lon="1.15892">
        <ele>7.7</ele>
        <time>2022-08-31T08:50:23Z</time>
      </trkpt>
      <trkpt lat="49.3054" lon="1.159">
        <ele>7.68</ele>
        <time>2022-08-31T08:50:39Z</time>
      </trkpt>
      <trkpt lat="49.30539" lon="1.15901">
        <ele>7.68</ele>
        <time>2022-08-31T08:51:28Z</time>
      </trkpt>
      <trkpt lat="49.30539" lon="1.15929">
        <ele>7.75</ele>
        <time>2022-08-31T08:51:43Z</time>
      </trkpt>
      <trkpt lat="49.30538" lon="1.15936">
        <ele>7.77</ele>
        <time>2022-08-31T08:51:47Z</time>
      </trkpt>
      <trkpt lat="49.30534" lon="1.15969">
        <ele>8.04</ele>
        <time>2022-08-31T08:52:08Z</time>
      </trkpt>
      <trkpt lat="49.30535" lon="1.15976">
        <ele>8.15</ele>
        <time>2022-08-31T08:52:29Z</time>
      </trkpt>
      <trkpt lat="49.30526" lon="1.1601">
        <ele>7.82</ele>
        <time>2022-08-31T08:52:51Z</time>
      </trkpt>
      <trkpt lat="49.30523" lon="1.16029">
        <ele>8.07</ele>
        <time>2022-08-31T08:53:09Z</time>
      </trkpt>
      <trkpt lat="49.30521" lon="1.16032">
        <ele>7.88</ele>
        <time>2022-08-31T08:53:36Z</time>
      </trkpt>
      <trkpt lat="49.30517" lon="1.1605">
        <ele>7.91</ele>
        <time>2022-08-31T08:53:49Z</time>
      </trkpt>
      <trkpt lat="49.30512" lon="1.16074">
        <ele>7.76</ele>
        <time>2022-08-31T08:54:06Z</time>
      </trkpt>
      <trkpt lat="49.30507" lon="1.16109">
        <ele>6.84</ele>
        <time>2022-08-31T08:54:27Z</time>
      </trkpt>
      <trkpt lat="49.30501" lon="1.16144">
        <ele>6.19</ele>
        <time>2022-08-31T08:54:51Z</time>
      </trkpt>
      <trkpt lat="49.30496" lon="1.16179">
        <ele>6.51</ele>
        <time>2022-08-31T08:55:14Z</time>
      </trkpt>
      <trkpt lat="49.30492" lon="1.16206">
        <ele>6.76</ele>
        <time>2022-08-31T08:55:31Z</time>
      </trkpt>
      <trkpt lat="49.30489" lon="1.16215">
        <ele>6.75</ele>
        <time>2022-08-31T08:55:38Z</time>
      </trkpt>
      <trkpt lat="49.30487" lon="1.16237">
        <ele>6.61</ele>
        <time>2022-08-31T08:56:04Z</time>
      </trkpt>
      <trkpt lat="49.30483" lon="1.1627">
        <ele>6.42</ele>
        <time>2022-08-31T08:56:22Z</time>
      </trkpt>
      <trkpt lat="49.30482" lon="1.16272">
        <ele>6.4</ele>
        <time>2022-08-31T08:56:23Z</time>
      </trkpt>
      <trkpt lat="49.30477" lon="1.16301">
        <ele>6.28</ele>
        <time>2022-08-31T08:56:41Z</time>
      </trkpt>
      <trkpt lat="49.30472" lon="1.16328">
        <ele>6.52</ele>
        <time>2022-08-31T08:56:58Z</time>
      </trkpt>
      <trkpt lat="49.30467" lon="1.16354">
        <ele>6.65</ele>
        <time>2022-08-31T08:57:17Z</time>
      </trkpt>
      <trkpt lat="49.3046" lon="1.1639">
        <ele>6.74</ele>
        <time>2022-08-31T08:57:43Z</time>
      </trkpt>
      <trkpt lat="49.30457" lon="1.16415">
        <ele>6.61</ele>
        <time>2022-08-31T08:58:02Z</time>
      </trkpt>
      <trkpt lat="49.30455" lon="1.16434">
        <ele>6.61</ele>
        <time>2022-08-31T08:58:22Z</time>
      </trkpt>
      <trkpt lat="49.30449" lon="1.16463">
        <ele>6.72</ele>
        <time>2022-08-31T08:58:43Z</time>
      </trkpt>
      <trkpt lat="49.30446" lon="1.16485">
        <ele>6.55</ele>
        <time>2022-08-31T08:59:00Z</time>
      </trkpt>
      <trkpt lat="49.30444" lon="1.1652">
        <ele>6.76</ele>
        <time>2022-08-31T08:59:22Z</time>
      </trkpt>
      <trkpt lat="49.30443" lon="1.16524">
        <ele>6.81</ele>
        <time>2022-08-31T08:59:25Z</time>
      </trkpt>
      <trkpt lat="49.30438" lon="1.16543">
        <ele>7.13</ele>
        <time>2022-08-31T08:59:39Z</time>
      </trkpt>
      <trkpt lat="49.30438" lon="1.16547">
        <ele>7.13</ele>
        <time>2022-08-31T08:59:41Z</time>
      </trkpt>
      <trkpt lat="49.30432" lon="1.16579">
        <ele>7.12</ele>
        <time>2022-08-31T09:00:01Z</time>
      </trkpt>
      <trkpt lat="49.30431" lon="1.16598">
        <ele>7.01</ele>
        <time>2022-08-31T09:00:20Z</time>
      </trkpt>
      <trkpt lat="49.30433" lon="1.16597">
        <ele>6.6</ele>
        <time>2022-08-31T09:00:51Z</time>
      </trkpt>
      <trkpt lat="49.30432" lon="1.16598">
        <ele>6.82</ele>
        <time>2022-08-31T09:00:56Z</time>
      </trkpt>
      <trkpt lat="49.30434" lon="1.16598">
        <ele>7</ele>
        <time>2022-08-31T09:01:53Z</time>
      </trkpt>
      <trkpt lat="49.30432" lon="1.16606">
        <ele>7.38</ele>
        <time>2022-08-31T09:02:53Z</time>
      </trkpt>
      <trkpt lat="49.30423" lon="1.16652">
        <ele>7.55</ele>
        <time>2022-08-31T09:03:18Z</time>
      </trkpt>
      <trkpt lat="49.30417" lon="1.16694">
        <ele>7.31</ele>
        <time>2022-08-31T09:03:45Z</time>
      </trkpt>
      <trkpt lat="49.30411" lon="1.16728">
        <ele>7.05</ele>
        <time>2022-08-31T09:04:08Z</time>
      </trkpt>
      <trkpt lat="49.30406" lon="1.16776">
        <ele>6.83</ele>
        <time>2022-08-31T09:04:41Z</time>
      </trkpt>
      <trkpt lat="49.30402" lon="1.16795">
        <ele>6.87</ele>
        <time>2022-08-31T09:04:55Z</time>
      </trkpt>
      <trkpt lat="49.30394" lon="1.16837">
        <ele>6.73</ele>
        <time>2022-08-31T09:05:22Z</time>
      </trkpt>
      <trkpt lat="49.30388" lon="1.16872">
        <ele>6.6</ele>
        <time>2022-08-31T09:05:47Z</time>
      </trkpt>
      <trkpt lat="49.30385" lon="1.16896">
        <ele>6.57</ele>
        <time>2022-08-31T09:06:04Z</time>
      </trkpt>
      <trkpt lat="49.3038" lon="1.16927">
        <ele>6.8</ele>
        <time>2022-08-31T09:06:25Z</time>
      </trkpt>
      <trkpt lat="49.30375" lon="1.16968">
        <ele>6.5</ele>
        <time>2022-08-31T09:06:50Z</time>
      </trkpt>
      <trkpt lat="49.30369" lon="1.17004">
        <ele>6.84</ele>
        <time>2022-08-31T09:07:14Z</time>
      </trkpt>
      <trkpt lat="49.30365" lon="1.17032">
        <ele>6.89</ele>
        <time>2022-08-31T09:07:36Z</time>
      </trkpt>
      <trkpt lat="49.30361" lon="1.17061">
        <ele>6.64</ele>
        <time>2022-08-31T09:07:57Z</time>
      </trkpt>
      <trkpt lat="49.30358" lon="1.17101">
        <ele>6.69</ele>
        <time>2022-08-31T09:08:19Z</time>
      </trkpt>
      <trkpt lat="49.30353" lon="1.17136">
        <ele>6.44</ele>
        <time>2022-08-31T09:08:40Z</time>
      </trkpt>
      <trkpt lat="49.30353" lon="1.1714">
        <ele>6.44</ele>
        <time>2022-08-31T09:08:46Z</time>
      </trkpt>
      <trkpt lat="49.30352" lon="1.17156">
        <ele>6.69</ele>
        <time>2022-08-31T09:09:03Z</time>
      </trkpt>
      <trkpt lat="49.3035" lon="1.1716">
        <ele>6.7</ele>
        <time>2022-08-31T09:09:07Z</time>
      </trkpt>
      <trkpt lat="49.30346" lon="1.1719">
        <ele>6.73</ele>
        <time>2022-08-31T09:09:27Z</time>
      </trkpt>
      <trkpt lat="49.30346" lon="1.17195">
        <ele>6.71</ele>
        <time>2022-08-31T09:09:30Z</time>
      </trkpt>
      <trkpt lat="49.30345" lon="1.17199">
        <ele>6.71</ele>
        <time>2022-08-31T09:09:32Z</time>
      </trkpt>
      <trkpt lat="49.30343" lon="1.17213">
        <ele>6.77</ele>
        <time>2022-08-31T09:09:49Z</time>
      </trkpt>
      <trkpt lat="49.30342" lon="1.17216">
        <ele>6.77</ele>
        <time>2022-08-31T09:09:51Z</time>
      </trkpt>
      <trkpt lat="49.30338" lon="1.17252">
        <ele>6.67</ele>
        <time>2022-08-31T09:10:14Z</time>
      </trkpt>
      <trkpt lat="49.30333" lon="1.17288">
        <ele>6.74</ele>
        <time>2022-08-31T09:10:38Z</time>
      </trkpt>
      <trkpt lat="49.3033" lon="1.17315">
        <ele>6.52</ele>
        <time>2022-08-31T09:10:56Z</time>
      </trkpt>
      <trkpt lat="49.30327" lon="1.17341">
        <ele>6.46</ele>
        <time>2022-08-31T09:11:15Z</time>
      </trkpt>
      <trkpt lat="49.30325" lon="1.17389">
        <ele>6.9</ele>
        <time>2022-08-31T09:11:46Z</time>
      </trkpt>
      <trkpt lat="49.30324" lon="1.17426">
        <ele>6.82</ele>
        <time>2022-08-31T09:12:08Z</time>
      </trkpt>
      <trkpt lat="49.30324" lon="1.17443">
        <ele>6.69</ele>
        <time>2022-08-31T09:12:30Z</time>
      </trkpt>
      <trkpt lat="49.30322" lon="1.17464">
        <ele>7</ele>
        <time>2022-08-31T09:12:44Z</time>
      </trkpt>
      <trkpt lat="49.30323" lon="1.17472">
        <ele>7.01</ele>
        <time>2022-08-31T09:12:49Z</time>
      </trkpt>
      <trkpt lat="49.30323" lon="1.17483">
        <ele>7.01</ele>
        <time>2022-08-31T09:12:55Z</time>
      </trkpt>
      <trkpt lat="49.30322" lon="1.17511">
        <ele>6.79</ele>
        <time>2022-08-31T09:13:15Z</time>
      </trkpt>
      <trkpt lat="49.30324" lon="1.17541">
        <ele>6.51</ele>
        <time>2022-08-31T09:13:35Z</time>
      </trkpt>
      <trkpt lat="49.30325" lon="1.17575">
        <ele>6.52</ele>
        <time>2022-08-31T09:13:55Z</time>
      </trkpt>
      <trkpt lat="49.30326" lon="1.17587">
        <ele>6.56</ele>
        <time>2022-08-31T09:14:01Z</time>
      </trkpt>
      <trkpt lat="49.30328" lon="1.17618">
        <ele>6.87</ele>
        <time>2022-08-31T09:14:20Z</time>
      </trkpt>
      <trkpt lat="49.3033" lon="1.17644">
        <ele>6.95</ele>
        <time>2022-08-31T09:14:36Z</time>
      </trkpt>
      <trkpt lat="49.30331" lon="1.17653">
        <ele>6.92</ele>
        <time>2022-08-31T09:14:42Z</time>
      </trkpt>
      <trkpt lat="49.30334" lon="1.17678">
        <ele>6.64</ele>
        <time>2022-08-31T09:14:58Z</time>
      </trkpt>
      <trkpt lat="49.30332" lon="1.17701">
        <ele>6.61</ele>
        <time>2022-08-31T09:15:11Z</time>
      </trkpt>
      <trkpt lat="49.30336" lon="1.17734">
        <ele>6.52</ele>
        <time>2022-08-31T09:15:34Z</time>
      </trkpt>
      <trkpt lat="49.30342" lon="1.17761">
        <ele>6.59</ele>
        <time>2022-08-31T09:15:53Z</time>
      </trkpt>
      <trkpt lat="49.30343" lon="1.17792">
        <ele>7.11</ele>
        <time>2022-08-31T09:16:16Z</time>
      </trkpt>
      <trkpt lat="49.30345" lon="1.1779">
        <ele>7.36</ele>
        <time>2022-08-31T09:16:37Z</time>
      </trkpt>
      <trkpt lat="49.30344" lon="1.17785">
        <ele>7.01</ele>
        <time>2022-08-31T09:17:44Z</time>
      </trkpt>
      <trkpt lat="49.30345" lon="1.1779">
        <ele>7.6</ele>
        <time>2022-08-31T09:19:32Z</time>
      </trkpt>
      <trkpt lat="49.30345" lon="1.17822">
        <ele>7.98</ele>
        <time>2022-08-31T09:19:52Z</time>
      </trkpt>
      <trkpt lat="49.30354" lon="1.17844">
        <ele>8</ele>
        <time>2022-08-31T09:20:11Z</time>
      </trkpt>
      <trkpt lat="49.30362" lon="1.17872">
        <ele>8.01</ele>
        <time>2022-08-31T09:20:30Z</time>
      </trkpt>
      <trkpt lat="49.30361" lon="1.17913">
        <ele>7.96</ele>
        <time>2022-08-31T09:20:53Z</time>
      </trkpt>
      <trkpt lat="49.30359" lon="1.17948">
        <ele>7.55</ele>
        <time>2022-08-31T09:21:14Z</time>
      </trkpt>
      <trkpt lat="49.30365" lon="1.17948">
        <ele>7.43</ele>
        <time>2022-08-31T09:21:28Z</time>
      </trkpt>
      <trkpt lat="49.30362" lon="1.17947">
        <ele>7.39</ele>
        <time>2022-08-31T09:21:33Z</time>
      </trkpt>
      <trkpt lat="49.30358" lon="1.17957">
        <ele>7.43</ele>
        <time>2022-08-31T09:21:42Z</time>
      </trkpt>
      <trkpt lat="49.30352" lon="1.17979">
        <ele>7.54</ele>
        <time>2022-08-31T09:22:01Z</time>
      </trkpt>
      <trkpt lat="49.30341" lon="1.18011">
        <ele>7.52</ele>
        <time>2022-08-31T09:22:23Z</time>
      </trkpt>
      <trkpt lat="49.30327" lon="1.18037">
        <ele>7.48</ele>
        <time>2022-08-31T09:22:41Z</time>
      </trkpt>
      <trkpt lat="49.30316" lon="1.18056">
        <ele>8.99</ele>
        <time>2022-08-31T09:22:59Z</time>
      </trkpt>
      <trkpt lat="49.30308" lon="1.18073">
        <ele>9.22</ele>
        <time>2022-08-31T09:23:16Z</time>
      </trkpt>
      <trkpt lat="49.30308" lon="1.18074">
        <ele>9.25</ele>
        <time>2022-08-31T09:23:18Z</time>
      </trkpt>
      <trkpt lat="49.30305" lon="1.18077">
        <ele>9.28</ele>
        <time>2022-08-31T09:23:21Z</time>
      </trkpt>
      <trkpt lat="49.303" lon="1.18088">
        <ele>9.33</ele>
        <time>2022-08-31T09:23:33Z</time>
      </trkpt>
      <trkpt lat="49.30299" lon="1.18094">
        <ele>9.34</ele>
        <time>2022-08-31T09:23:40Z</time>
      </trkpt>
      <trkpt lat="49.30299" lon="1.18099">
        <ele>9.4</ele>
        <time>2022-08-31T09:23:44Z</time>
      </trkpt>
      <trkpt lat="49.30313" lon="1.18117">
        <ele>9.53</ele>
        <time>2022-08-31T09:24:02Z</time>
      </trkpt>
      <trkpt lat="49.30329" lon="1.18129">
        <ele>9.54</ele>
        <time>2022-08-31T09:24:18Z</time>
      </trkpt>
      <trkpt lat="49.30339" lon="1.18143">
        <ele>9.06</ele>
        <time>2022-08-31T09:24:32Z</time>
      </trkpt>
      <trkpt lat="49.30345" lon="1.18167">
        <ele>8.75</ele>
        <time>2022-08-31T09:24:49Z</time>
      </trkpt>
      <trkpt lat="49.3035" lon="1.18187">
        <ele>8.69</ele>
        <time>2022-08-31T09:25:06Z</time>
      </trkpt>
      <trkpt lat="49.30353" lon="1.182">
        <ele>9.16</ele>
        <time>2022-08-31T09:25:20Z</time>
      </trkpt>
      <trkpt lat="49.30362" lon="1.18231">
        <ele>9.48</ele>
        <time>2022-08-31T09:25:40Z</time>
      </trkpt>
      <trkpt lat="49.30368" lon="1.18266">
        <ele>9.43</ele>
        <time>2022-08-31T09:26:02Z</time>
      </trkpt>
      <trkpt lat="49.30367" lon="1.18306">
        <ele>9.29</ele>
        <time>2022-08-31T09:26:25Z</time>
      </trkpt>
      <trkpt lat="49.30365" lon="1.18345">
        <ele>9.29</ele>
        <time>2022-08-31T09:26:53Z</time>
      </trkpt>
      <trkpt lat="49.30363" lon="1.1837">
        <ele>9.32</ele>
        <time>2022-08-31T09:27:13Z</time>
      </trkpt>
      <trkpt lat="49.30362" lon="1.18414">
        <ele>9.42</ele>
        <time>2022-08-31T09:27:42Z</time>
      </trkpt>
      <trkpt lat="49.30359" lon="1.18456">
        <ele>9.24</ele>
        <time>2022-08-31T09:28:09Z</time>
      </trkpt>
      <trkpt lat="49.30358" lon="1.18479">
        <ele>9.22</ele>
        <time>2022-08-31T09:28:25Z</time>
      </trkpt>
      <trkpt lat="49.30355" lon="1.1852">
        <ele>9.39</ele>
        <time>2022-08-31T09:28:53Z</time>
      </trkpt>
      <trkpt lat="49.30353" lon="1.18558">
        <ele>9.62</ele>
        <time>2022-08-31T09:29:17Z</time>
      </trkpt>
      <trkpt lat="49.30349" lon="1.18605">
        <ele>9.66</ele>
        <time>2022-08-31T09:29:47Z</time>
      </trkpt>
      <trkpt lat="49.30346" lon="1.18642">
        <ele>9.69</ele>
        <time>2022-08-31T09:30:11Z</time>
      </trkpt>
      <trkpt lat="49.30342" lon="1.18684">
        <ele>9.88</ele>
        <time>2022-08-31T09:30:38Z</time>
      </trkpt>
      <trkpt lat="49.30338" lon="1.18723">
        <ele>9.66</ele>
        <time>2022-08-31T09:31:04Z</time>
      </trkpt>
      <trkpt lat="49.30335" lon="1.18761">
        <ele>9.73</ele>
        <time>2022-08-31T09:31:28Z</time>
      </trkpt>
      <trkpt lat="49.30332" lon="1.18799">
        <ele>9.52</ele>
        <time>2022-08-31T09:31:53Z</time>
      </trkpt>
      <trkpt lat="49.30325" lon="1.18841">
        <ele>9.86</ele>
        <time>2022-08-31T09:32:21Z</time>
      </trkpt>
      <trkpt lat="49.3032" lon="1.1888">
        <ele>9.75</ele>
        <time>2022-08-31T09:32:47Z</time>
      </trkpt>
      <trkpt lat="49.30313" lon="1.18911">
        <ele>9.72</ele>
        <time>2022-08-31T09:33:09Z</time>
      </trkpt>
      <trkpt lat="49.30305" lon="1.18952">
        <ele>9.62</ele>
        <time>2022-08-31T09:33:38Z</time>
      </trkpt>
      <trkpt lat="49.30298" lon="1.18983">
        <ele>9.5</ele>
        <time>2022-08-31T09:34:00Z</time>
      </trkpt>
      <trkpt lat="49.30295" lon="1.19002">
        <ele>9.55</ele>
        <time>2022-08-31T09:34:18Z</time>
      </trkpt>
      <trkpt lat="49.30287" lon="1.19043">
        <ele>9.41</ele>
        <time>2022-08-31T09:34:48Z</time>
      </trkpt>
      <trkpt lat="49.30279" lon="1.19084">
        <ele>9.04</ele>
        <time>2022-08-31T09:35:17Z</time>
      </trkpt>
      <trkpt lat="49.30269" lon="1.19131">
        <ele>8.74</ele>
        <time>2022-08-31T09:35:49Z</time>
      </trkpt>
      <trkpt lat="49.30268" lon="1.19139">
        <ele>8.52</ele>
        <time>2022-08-31T09:36:11Z</time>
      </trkpt>
      <trkpt lat="49.30261" lon="1.19175">
        <ele>8.56</ele>
        <time>2022-08-31T09:36:35Z</time>
      </trkpt>
      <trkpt lat="49.30255" lon="1.19202">
        <ele>8.45</ele>
        <time>2022-08-31T09:36:54Z</time>
      </trkpt>
      <trkpt lat="49.30255" lon="1.19204">
        <ele>8.57</ele>
        <time>2022-08-31T09:37:09Z</time>
      </trkpt>
      <trkpt lat="49.30255" lon="1.19206">
        <ele>8.62</ele>
        <time>2022-08-31T09:37:13Z</time>
      </trkpt>
      <trkpt lat="49.30251" lon="1.19231">
        <ele>8.92</ele>
        <time>2022-08-31T09:37:31Z</time>
      </trkpt>
      <trkpt lat="49.30246" lon="1.19258">
        <ele>9.34</ele>
        <time>2022-08-31T09:37:50Z</time>
      </trkpt>
      <trkpt lat="49.3024" lon="1.19296">
        <ele>9.28</ele>
        <time>2022-08-31T09:38:16Z</time>
      </trkpt>
      <trkpt lat="49.30231" lon="1.19348">
        <ele>9.41</ele>
        <time>2022-08-31T09:38:49Z</time>
      </trkpt>
      <trkpt lat="49.30225" lon="1.19389">
        <ele>9.39</ele>
        <time>2022-08-31T09:39:18Z</time>
      </trkpt>
      <trkpt lat="49.30224" lon="1.19395">
        <ele>9.41</ele>
        <time>2022-08-31T09:39:23Z</time>
      </trkpt>
      <trkpt lat="49.30218" lon="1.19433">
        <ele>9.61</ele>
        <time>2022-08-31T09:39:50Z</time>
      </trkpt>
      <trkpt lat="49.30218" lon="1.19437">
        <ele>9.64</ele>
        <time>2022-08-31T09:39:55Z</time>
      </trkpt>
      <trkpt lat="49.30212" lon="1.1947">
        <ele>9.67</ele>
        <time>2022-08-31T09:40:17Z</time>
      </trkpt>
      <trkpt lat="49.30213" lon="1.19484">
        <ele>9.61</ele>
        <time>2022-08-31T09:40:37Z</time>
      </trkpt>
      <trkpt lat="49.30215" lon="1.19482">
        <ele>9.8</ele>
        <time>2022-08-31T09:41:52Z</time>
      </trkpt>
      <trkpt lat="49.30212" lon="1.19479">
        <ele>9.93</ele>
        <time>2022-08-31T09:42:23Z</time>
      </trkpt>
      <trkpt lat="49.3021" lon="1.19496">
        <ele>9.96</ele>
        <time>2022-08-31T09:42:41Z</time>
      </trkpt>
      <trkpt lat="49.30209" lon="1.1951">
        <ele>9.83</ele>
        <time>2022-08-31T09:43:08Z</time>
      </trkpt>
      <trkpt lat="49.302" lon="1.19553">
        <ele>9.75</ele>
        <time>2022-08-31T09:43:37Z</time>
      </trkpt>
      <trkpt lat="49.30199" lon="1.19574">
        <ele>9.72</ele>
        <time>2022-08-31T09:43:58Z</time>
      </trkpt>
      <trkpt lat="49.30199" lon="1.1957">
        <ele>9.74</ele>
        <time>2022-08-31T09:44:23Z</time>
      </trkpt>
      <trkpt lat="49.30198" lon="1.1957">
        <ele>9.42</ele>
        <time>2022-08-31T09:44:43Z</time>
      </trkpt>
      <trkpt lat="49.30197" lon="1.19585">
        <ele>9.41</ele>
        <time>2022-08-31T09:44:57Z</time>
      </trkpt>
      <trkpt lat="49.30192" lon="1.19626">
        <ele>9.88</ele>
        <time>2022-08-31T09:45:24Z</time>
      </trkpt>
      <trkpt lat="49.30189" lon="1.19665">
        <ele>9.96</ele>
        <time>2022-08-31T09:45:50Z</time>
      </trkpt>
      <trkpt lat="49.30189" lon="1.19696">
        <ele>9.68</ele>
        <time>2022-08-31T09:46:10Z</time>
      </trkpt>
      <trkpt lat="49.30188" lon="1.19741">
        <ele>9.78</ele>
        <time>2022-08-31T09:46:38Z</time>
      </trkpt>
      <trkpt lat="49.30188" lon="1.19775">
        <ele>9.76</ele>
        <time>2022-08-31T09:46:59Z</time>
      </trkpt>
      <trkpt lat="49.30185" lon="1.19826">
        <ele>9.38</ele>
        <time>2022-08-31T09:47:30Z</time>
      </trkpt>
      <trkpt lat="49.3018" lon="1.19875">
        <ele>9.45</ele>
        <time>2022-08-31T09:48:01Z</time>
      </trkpt>
      <trkpt lat="49.30172" lon="1.19923">
        <ele>9.85</ele>
        <time>2022-08-31T09:48:33Z</time>
      </trkpt>
      <trkpt lat="49.30162" lon="1.19973">
        <ele>10.07</ele>
        <time>2022-08-31T09:49:05Z</time>
      </trkpt>
      <trkpt lat="49.30155" lon="1.20017">
        <ele>10.11</ele>
        <time>2022-08-31T09:49:31Z</time>
      </trkpt>
      <trkpt lat="49.3016" lon="1.20053">
        <ele>10.35</ele>
        <time>2022-08-31T09:49:55Z</time>
      </trkpt>
      <trkpt lat="49.30164" lon="1.2007">
        <ele>10.45</ele>
        <time>2022-08-31T09:50:07Z</time>
      </trkpt>
      <trkpt lat="49.30152" lon="1.20096">
        <ele>11.14</ele>
        <time>2022-08-31T09:50:28Z</time>
      </trkpt>
      <trkpt lat="49.30151" lon="1.20098">
        <ele>11.15</ele>
        <time>2022-08-31T09:50:30Z</time>
      </trkpt>
      <trkpt lat="49.30141" lon="1.20111">
        <ele>11.6</ele>
        <time>2022-08-31T09:50:47Z</time>
      </trkpt>
      <trkpt lat="49.3014" lon="1.2012">
        <ele>11.07</ele>
        <time>2022-08-31T09:51:05Z</time>
      </trkpt>
      <trkpt lat="49.30139" lon="1.20126">
        <ele>10.78</ele>
        <time>2022-08-31T09:51:38Z</time>
      </trkpt>
      <trkpt lat="49.30132" lon="1.20149">
        <ele>10.87</ele>
        <time>2022-08-31T09:51:53Z</time>
      </trkpt>
      <trkpt lat="49.30129" lon="1.20171">
        <ele>11.23</ele>
        <time>2022-08-31T09:52:15Z</time>
      </trkpt>
      <trkpt lat="49.30129" lon="1.20171">
        <ele>11.06</ele>
        <time>2022-08-31T09:52:25Z</time>
      </trkpt>
      <trkpt lat="49.3013" lon="1.20169">
        <ele>10.64</ele>
        <time>2022-08-31T09:52:41Z</time>
      </trkpt>
      <trkpt lat="49.30128" lon="1.20181">
        <ele>10.65</ele>
        <time>2022-08-31T09:52:49Z</time>
      </trkpt>
      <trkpt lat="49.30127" lon="1.2019">
        <ele>10.77</ele>
        <time>2022-08-31T09:52:54Z</time>
      </trkpt>
      <trkpt lat="49.30126" lon="1.20196">
        <ele>10.82</ele>
        <time>2022-08-31T09:52:57Z</time>
      </trkpt>
      <trkpt lat="49.30127" lon="1.20202">
        <ele>10.84</ele>
        <time>2022-08-31T09:53:01Z</time>
      </trkpt>
      <trkpt lat="49.30118" lon="1.20232">
        <ele>10.75</ele>
        <time>2022-08-31T09:53:16Z</time>
      </trkpt>
      <trkpt lat="49.30117" lon="1.2024">
        <ele>10.71</ele>
        <time>2022-08-31T09:53:26Z</time>
      </trkpt>
      <trkpt lat="49.3012" lon="1.20234">
        <ele>10.69</ele>
        <time>2022-08-31T09:53:30Z</time>
      </trkpt>
      <trkpt lat="49.30122" lon="1.20227">
        <ele>10.65</ele>
        <time>2022-08-31T09:53:33Z</time>
      </trkpt>
      <trkpt lat="49.30122" lon="1.20225">
        <ele>10.62</ele>
        <time>2022-08-31T09:53:34Z</time>
      </trkpt>
      <trkpt lat="49.30123" lon="1.20223">
        <ele>10.6</ele>
        <time>2022-08-31T09:53:35Z</time>
      </trkpt>
      <trkpt lat="49.30123" lon="1.20221">
        <ele>10.59</ele>
        <time>2022-08-31T09:53:36Z</time>
      </trkpt>
      <trkpt lat="49.30123" lon="1.20219">
        <ele>10.59</ele>
        <time>2022-08-31T09:53:37Z</time>
      </trkpt>
      <trkpt lat="49.30123" lon="1.20217">
        <ele>10.59</ele>
        <time>2022-08-31T09:53:38Z</time>
      </trkpt>
      <trkpt lat="49.30128" lon="1.20196">
        <ele>10.59</ele>
        <time>2022-08-31T09:53:51Z</time>
      </trkpt>
      <trkpt lat="49.30129" lon="1.20193">
        <ele>10.59</ele>
        <time>2022-08-31T09:53:53Z</time>
      </trkpt>
      <trkpt lat="49.30135" lon="1.20151">
        <ele>10.77</ele>
        <time>2022-08-31T09:54:18Z</time>
      </trkpt>
      <trkpt lat="49.30139" lon="1.20118">
        <ele>10.77</ele>
        <time>2022-08-31T09:54:45Z</time>
      </trkpt>
      <trkpt lat="49.30138" lon="1.20127">
        <ele>10.77</ele>
        <time>2022-08-31T09:54:52Z</time>
      </trkpt>
      <trkpt lat="49.30138" lon="1.20129">
        <ele>10.77</ele>
        <time>2022-08-31T09:54:53Z</time>
      </trkpt>
      <trkpt lat="49.30138" lon="1.2013">
        <ele>10.77</ele>
        <time>2022-08-31T09:54:54Z</time>
      </trkpt>
      <trkpt lat="49.30132" lon="1.20161">
        <ele>10.93</ele>
        <time>2022-08-31T09:55:13Z</time>
      </trkpt>
      <trkpt lat="49.30129" lon="1.20176">
        <ele>11.01</ele>
        <time>2022-08-31T09:55:22Z</time>
      </trkpt>
      <trkpt lat="49.30129" lon="1.20178">
        <ele>11.01</ele>
        <time>2022-08-31T09:55:23Z</time>
      </trkpt>
      <trkpt lat="49.30129" lon="1.2018">
        <ele>11.01</ele>
        <time>2022-08-31T09:55:24Z</time>
      </trkpt>
      <trkpt lat="49.30129" lon="1.20182">
        <ele>11.01</ele>
        <time>2022-08-31T09:55:25Z</time>
      </trkpt>
      <trkpt lat="49.30128" lon="1.20184">
        <ele>11.01</ele>
        <time>2022-08-31T09:55:26Z</time>
      </trkpt>
      <trkpt lat="49.30128" lon="1.20186">
        <ele>11.01</ele>
        <time>2022-08-31T09:55:27Z</time>
      </trkpt>
      <trkpt lat="49.30128" lon="1.20188">
        <ele>11.01</ele>
        <time>2022-08-31T09:55:28Z</time>
      </trkpt>
      <trkpt lat="49.30127" lon="1.20195">
        <ele>11.01</ele>
        <time>2022-08-31T09:55:33Z</time>
      </trkpt>
      <trkpt lat="49.30127" lon="1.20197">
        <ele>11.01</ele>
        <time>2022-08-31T09:55:34Z</time>
      </trkpt>
      <trkpt lat="49.30121" lon="1.20225">
        <ele>10.98</ele>
        <time>2022-08-31T09:55:50Z</time>
      </trkpt>
      <trkpt lat="49.30121" lon="1.20227">
        <ele>10.98</ele>
        <time>2022-08-31T09:55:51Z</time>
      </trkpt>
      <trkpt lat="49.30121" lon="1.20229">
        <ele>10.97</ele>
        <time>2022-08-31T09:55:52Z</time>
      </trkpt>
      <trkpt lat="49.30116" lon="1.20241">
        <ele>10.9</ele>
        <time>2022-08-31T09:56:04Z</time>
      </trkpt>
      <trkpt lat="49.30112" lon="1.2026">
        <ele>11.05</ele>
        <time>2022-08-31T09:56:17Z</time>
      </trkpt>
      <trkpt lat="49.30104" lon="1.20302">
        <ele>11</ele>
        <time>2022-08-31T09:56:46Z</time>
      </trkpt>
      <trkpt lat="49.30099" lon="1.20342">
        <ele>11.14</ele>
        <time>2022-08-31T09:57:11Z</time>
      </trkpt>
      <trkpt lat="49.30094" lon="1.20369">
        <ele>10.98</ele>
        <time>2022-08-31T09:57:36Z</time>
      </trkpt>
      <trkpt lat="49.30092" lon="1.20377">
        <ele>10.9</ele>
        <time>2022-08-31T09:57:43Z</time>
      </trkpt>
      <trkpt lat="49.30092" lon="1.20378">
        <ele>10.89</ele>
        <time>2022-08-31T09:57:44Z</time>
      </trkpt>
      <trkpt lat="49.30085" lon="1.20415">
        <ele>11.01</ele>
        <time>2022-08-31T09:58:10Z</time>
      </trkpt>
      <trkpt lat="49.3008" lon="1.20444">
        <ele>11.01</ele>
        <time>2022-08-31T09:58:30Z</time>
      </trkpt>
      <trkpt lat="49.30073" lon="1.20462">
        <ele>11.06</ele>
        <time>2022-08-31T09:58:49Z</time>
      </trkpt>
      <trkpt lat="49.30064" lon="1.20477">
        <ele>10.84</ele>
        <time>2022-08-31T09:59:07Z</time>
      </trkpt>
      <trkpt lat="49.30049" lon="1.20493">
        <ele>10.81</ele>
        <time>2022-08-31T09:59:23Z</time>
      </trkpt>
      <trkpt lat="49.30034" lon="1.20509">
        <ele>10.47</ele>
        <time>2022-08-31T09:59:40Z</time>
      </trkpt>
      <trkpt lat="49.3002" lon="1.20527">
        <ele>10.88</ele>
        <time>2022-08-31T09:59:57Z</time>
      </trkpt>
      <trkpt lat="49.30011" lon="1.2053">
        <ele>10.91</ele>
        <time>2022-08-31T10:00:06Z</time>
      </trkpt>
      <trkpt lat="49.30009" lon="1.2053">
        <ele>10.91</ele>
        <time>2022-08-31T10:00:07Z</time>
      </trkpt>
      <trkpt lat="49.30008" lon="1.20531">
        <ele>10.91</ele>
        <time>2022-08-31T10:00:08Z</time>
      </trkpt>
      <trkpt lat="49.29988" lon="1.20544">
        <ele>10.9</ele>
        <time>2022-08-31T10:00:29Z</time>
      </trkpt>
      <trkpt lat="49.2996" lon="1.20563">
        <ele>11.01</ele>
        <time>2022-08-31T10:00:58Z</time>
      </trkpt>
      <trkpt lat="49.29938" lon="1.20579">
        <ele>10.85</ele>
        <time>2022-08-31T10:01:23Z</time>
      </trkpt>
      <trkpt lat="49.29916" lon="1.20595">
        <ele>10.73</ele>
        <time>2022-08-31T10:01:45Z</time>
      </trkpt>
      <trkpt lat="49.29894" lon="1.20615">
        <ele>10.86</ele>
        <time>2022-08-31T10:02:09Z</time>
      </trkpt>
      <trkpt lat="49.29871" lon="1.20643">
        <ele>11.01</ele>
        <time>2022-08-31T10:02:36Z</time>
      </trkpt>
      <trkpt lat="49.29849" lon="1.20668">
        <ele>10.76</ele>
        <time>2022-08-31T10:03:03Z</time>
      </trkpt>
      <trkpt lat="49.29829" lon="1.2069">
        <ele>11.07</ele>
        <time>2022-08-31T10:03:28Z</time>
      </trkpt>
      <trkpt lat="49.29822" lon="1.20711">
        <ele>11.1</ele>
        <time>2022-08-31T10:03:48Z</time>
      </trkpt>
      <trkpt lat="49.29834" lon="1.20746">
        <ele>11.26</ele>
        <time>2022-08-31T10:04:12Z</time>
      </trkpt>
      <trkpt lat="49.29842" lon="1.20774">
        <ele>11.49</ele>
        <time>2022-08-31T10:04:34Z</time>
      </trkpt>
      <trkpt lat="49.29848" lon="1.20787">
        <ele>12.38</ele>
        <time>2022-08-31T10:04:45Z</time>
      </trkpt>
      <trkpt lat="49.29848" lon="1.20789">
        <ele>12.52</ele>
        <time>2022-08-31T10:04:46Z</time>
      </trkpt>
      <trkpt lat="49.2985" lon="1.20796">
        <ele>13.19</ele>
        <time>2022-08-31T10:04:51Z</time>
      </trkpt>
      <trkpt lat="49.29852" lon="1.20803">
        <ele>13.42</ele>
        <time>2022-08-31T10:04:57Z</time>
      </trkpt>
      <trkpt lat="49.29852" lon="1.20804">
        <ele>13.42</ele>
        <time>2022-08-31T10:04:58Z</time>
      </trkpt>
      <trkpt lat="49.29855" lon="1.20807">
        <ele>13.42</ele>
        <time>2022-08-31T10:05:01Z</time>
      </trkpt>
      <trkpt lat="49.29856" lon="1.20807">
        <ele>13.42</ele>
        <time>2022-08-31T10:05:02Z</time>
      </trkpt>
      <trkpt lat="49.29858" lon="1.20809">
        <ele>13.23</ele>
        <time>2022-08-31T10:05:05Z</time>
      </trkpt>
      <trkpt lat="49.29868" lon="1.20834">
        <ele>12.3</ele>
        <time>2022-08-31T10:05:23Z</time>
      </trkpt>
      <trkpt lat="49.29872" lon="1.20846">
        <ele>12.07</ele>
        <time>2022-08-31T10:05:31Z</time>
      </trkpt>
      <trkpt lat="49.29878" lon="1.20859">
        <ele>12.06</ele>
        <time>2022-08-31T10:05:42Z</time>
      </trkpt>
      <trkpt lat="49.29882" lon="1.20882">
        <ele>11.88</ele>
        <time>2022-08-31T10:05:56Z</time>
      </trkpt>
      <trkpt lat="49.2989" lon="1.20914">
        <ele>12.12</ele>
        <time>2022-08-31T10:06:17Z</time>
      </trkpt>
      <trkpt lat="49.29892" lon="1.20921">
        <ele>12.12</ele>
        <time>2022-08-31T10:06:22Z</time>
      </trkpt>
      <trkpt lat="49.29897" lon="1.20941">
        <ele>11.79</ele>
        <time>2022-08-31T10:06:38Z</time>
      </trkpt>
      <trkpt lat="49.29904" lon="1.20945">
        <ele>11.58</ele>
        <time>2022-08-31T10:06:51Z</time>
      </trkpt>
      <trkpt lat="49.29908" lon="1.20944">
        <ele>11.48</ele>
        <time>2022-08-31T10:06:56Z</time>
      </trkpt>
      <trkpt lat="49.29917" lon="1.20944">
        <ele>11.31</ele>
        <time>2022-08-31T10:07:13Z</time>
      </trkpt>
      <trkpt lat="49.29918" lon="1.20941">
        <ele>11.38</ele>
        <time>2022-08-31T10:07:22Z</time>
      </trkpt>
      <trkpt lat="49.29919" lon="1.20938">
        <ele>11.62</ele>
        <time>2022-08-31T10:07:54Z</time>
      </trkpt>
      <trkpt lat="49.2992" lon="1.20941">
        <ele>10.86</ele>
        <time>2022-08-31T10:08:24Z</time>
      </trkpt>
      <trkpt lat="49.29918" lon="1.20944">
        <ele>10.56</ele>
        <time>2022-08-31T10:09:20Z</time>
      </trkpt>
      <trkpt lat="49.29918" lon="1.20944">
        <ele>10.73</ele>
        <time>2022-08-31T10:10:26Z</time>
      </trkpt>
      <trkpt lat="49.29919" lon="1.20945">
        <ele>10.76</ele>
        <time>2022-08-31T10:11:55Z</time>
      </trkpt>
      <trkpt lat="49.29919" lon="1.20942">
        <ele>10.75</ele>
        <time>2022-08-31T10:13:48Z</time>
      </trkpt>
      <trkpt lat="49.29917" lon="1.20944">
        <ele>11.12</ele>
        <time>2022-08-31T10:17:28Z</time>
      </trkpt>
      <trkpt lat="49.2992" lon="1.2094">
        <ele>11.42</ele>
        <time>2022-08-31T10:20:35Z</time>
      </trkpt>
      <trkpt lat="49.2992" lon="1.20943">
        <ele>11.71</ele>
        <time>2022-08-31T10:23:21Z</time>
      </trkpt>
      <trkpt lat="49.2992" lon="1.20943">
        <ele>11.98</ele>
        <time>2022-08-31T10:26:04Z</time>
      </trkpt>
      <trkpt lat="49.29921" lon="1.20941">
        <ele>11.98</ele>
        <time>2022-08-31T10:28:16Z</time>
      </trkpt>
      <trkpt lat="49.29919" lon="1.20941">
        <ele>12.02</ele>
        <time>2022-08-31T10:30:13Z</time>
      </trkpt>
      <trkpt lat="49.29921" lon="1.20941">
        <ele>11.85</ele>
        <time>2022-08-31T10:32:21Z</time>
      </trkpt>
      <trkpt lat="49.29921" lon="1.20943">
        <ele>11.95</ele>
        <time>2022-08-31T10:35:09Z</time>
      </trkpt>
      <trkpt lat="49.2992" lon="1.20942">
        <ele>11.89</ele>
        <time>2022-08-31T10:35:55Z</time>
      </trkpt>
      <trkpt lat="49.2992" lon="1.20945">
        <ele>12.34</ele>
        <time>2022-08-31T10:37:09Z</time>
      </trkpt>
      <trkpt lat="49.2992" lon="1.20941">
        <ele>12.83</ele>
        <time>2022-08-31T10:37:45Z</time>
      </trkpt>
      <trkpt lat="49.2991" lon="1.20952">
        <ele>12.57</ele>
        <time>2022-08-31T10:38:05Z</time>
      </trkpt>
      <trkpt lat="49.29899" lon="1.20957">
        <ele>12.05</ele>
        <time>2022-08-31T10:38:22Z</time>
      </trkpt>
      <trkpt lat="49.29887" lon="1.20963">
        <ele>12.35</ele>
        <time>2022-08-31T10:38:37Z</time>
      </trkpt>
      <trkpt lat="49.29871" lon="1.20974">
        <ele>12.63</ele>
        <time>2022-08-31T10:38:58Z</time>
      </trkpt>
      <trkpt lat="49.29867" lon="1.20976">
        <ele>12.9</ele>
        <time>2022-08-31T10:39:11Z</time>
      </trkpt>
      <trkpt lat="49.29858" lon="1.20979">
        <ele>12.96</ele>
        <time>2022-08-31T10:39:21Z</time>
      </trkpt>
      <trkpt lat="49.29839" lon="1.20986">
        <ele>12.89</ele>
        <time>2022-08-31T10:39:38Z</time>
      </trkpt>
      <trkpt lat="49.29831" lon="1.20995">
        <ele>12.73</ele>
        <time>2022-08-31T10:39:54Z</time>
      </trkpt>
      <trkpt lat="49.2983" lon="1.20996">
        <ele>12.81</ele>
        <time>2022-08-31T10:39:56Z</time>
      </trkpt>
      <trkpt lat="49.29817" lon="1.21012">
        <ele>13</ele>
        <time>2022-08-31T10:40:17Z</time>
      </trkpt>
      <trkpt lat="49.298" lon="1.21023">
        <ele>12.88</ele>
        <time>2022-08-31T10:40:36Z</time>
      </trkpt>
      <trkpt lat="49.29789" lon="1.21033">
        <ele>12.87</ele>
        <time>2022-08-31T10:40:53Z</time>
      </trkpt>
      <trkpt lat="49.29781" lon="1.21039">
        <ele>13.32</ele>
        <time>2022-08-31T10:41:16Z</time>
      </trkpt>
      <trkpt lat="49.29774" lon="1.21044">
        <ele>13.62</ele>
        <time>2022-08-31T10:41:24Z</time>
      </trkpt>
      <trkpt lat="49.2976" lon="1.21052">
        <ele>13.65</ele>
        <time>2022-08-31T10:41:39Z</time>
      </trkpt>
      <trkpt lat="49.29752" lon="1.21053">
        <ele>13.63</ele>
        <time>2022-08-31T10:41:46Z</time>
      </trkpt>
      <trkpt lat="49.29737" lon="1.21058">
        <ele>13.24</ele>
        <time>2022-08-31T10:42:03Z</time>
      </trkpt>
      <trkpt lat="49.29724" lon="1.21059">
        <ele>13.08</ele>
        <time>2022-08-31T10:42:19Z</time>
      </trkpt>
      <trkpt lat="49.29714" lon="1.21057">
        <ele>13.11</ele>
        <time>2022-08-31T10:42:30Z</time>
      </trkpt>
      <trkpt lat="49.29698" lon="1.21046">
        <ele>13.06</ele>
        <time>2022-08-31T10:42:46Z</time>
      </trkpt>
      <trkpt lat="49.29681" lon="1.21031">
        <ele>12.81</ele>
        <time>2022-08-31T10:43:06Z</time>
      </trkpt>
      <trkpt lat="49.29668" lon="1.21024">
        <ele>12.93</ele>
        <time>2022-08-31T10:43:22Z</time>
      </trkpt>
      <trkpt lat="49.29651" lon="1.21028">
        <ele>12.77</ele>
        <time>2022-08-31T10:43:42Z</time>
      </trkpt>
      <trkpt lat="49.2965" lon="1.21028">
        <ele>12.76</ele>
        <time>2022-08-31T10:43:43Z</time>
      </trkpt>
      <trkpt lat="49.29646" lon="1.21029">
        <ele>12.55</ele>
        <time>2022-08-31T10:43:47Z</time>
      </trkpt>
      <trkpt lat="49.29639" lon="1.21032">
        <ele>12.48</ele>
        <time>2022-08-31T10:43:53Z</time>
      </trkpt>
      <trkpt lat="49.2963" lon="1.21034">
        <ele>12.25</ele>
        <time>2022-08-31T10:44:07Z</time>
      </trkpt>
      <trkpt lat="49.29616" lon="1.21034">
        <ele>12.22</ele>
        <time>2022-08-31T10:44:19Z</time>
      </trkpt>
      <trkpt lat="49.29607" lon="1.21034">
        <ele>12.26</ele>
        <time>2022-08-31T10:44:29Z</time>
      </trkpt>
      <trkpt lat="49.29595" lon="1.21039">
        <ele>12.23</ele>
        <time>2022-08-31T10:44:46Z</time>
      </trkpt>
      <trkpt lat="49.29585" lon="1.21042">
        <ele>12.62</ele>
        <time>2022-08-31T10:45:01Z</time>
      </trkpt>
      <trkpt lat="49.29577" lon="1.21054">
        <ele>12.88</ele>
        <time>2022-08-31T10:45:20Z</time>
      </trkpt>
      <trkpt lat="49.29572" lon="1.21064">
        <ele>12.88</ele>
        <time>2022-08-31T10:45:28Z</time>
      </trkpt>
      <trkpt lat="49.2957" lon="1.2107">
        <ele>12.65</ele>
        <time>2022-08-31T10:45:45Z</time>
      </trkpt>
      <trkpt lat="49.29572" lon="1.21062">
        <ele>12.58</ele>
        <time>2022-08-31T10:46:39Z</time>
      </trkpt>
      <trkpt lat="49.29569" lon="1.21066">
        <ele>12.68</ele>
        <time>2022-08-31T10:46:47Z</time>
      </trkpt>
      <trkpt lat="49.29553" lon="1.21088">
        <ele>13.18</ele>
        <time>2022-08-31T10:47:06Z</time>
      </trkpt>
      <trkpt lat="49.29552" lon="1.21092">
        <ele>13.24</ele>
        <time>2022-08-31T10:47:10Z</time>
      </trkpt>
      <trkpt lat="49.29543" lon="1.21106">
        <ele>13.34</ele>
        <time>2022-08-31T10:47:24Z</time>
      </trkpt>
      <trkpt lat="49.29529" lon="1.21125">
        <ele>13.24</ele>
        <time>2022-08-31T10:47:44Z</time>
      </trkpt>
      <trkpt lat="49.29516" lon="1.21133">
        <ele>13.12</ele>
        <time>2022-08-31T10:48:02Z</time>
      </trkpt>
      <trkpt lat="49.29506" lon="1.21152">
        <ele>13.59</ele>
        <time>2022-08-31T10:48:19Z</time>
      </trkpt>
      <trkpt lat="49.2949" lon="1.2117">
        <ele>13.68</ele>
        <time>2022-08-31T10:48:39Z</time>
      </trkpt>
      <trkpt lat="49.29472" lon="1.21184">
        <ele>13.82</ele>
        <time>2022-08-31T10:49:01Z</time>
      </trkpt>
      <trkpt lat="49.29459" lon="1.21197">
        <ele>13.89</ele>
        <time>2022-08-31T10:49:20Z</time>
      </trkpt>
      <trkpt lat="49.29449" lon="1.2121">
        <ele>14.18</ele>
        <time>2022-08-31T10:49:34Z</time>
      </trkpt>
      <trkpt lat="49.29431" lon="1.21223">
        <ele>14.3</ele>
        <time>2022-08-31T10:49:56Z</time>
      </trkpt>
      <trkpt lat="49.2942" lon="1.21229">
        <ele>14.53</ele>
        <time>2022-08-31T10:50:11Z</time>
      </trkpt>
      <trkpt lat="49.29405" lon="1.21227">
        <ele>15.1</ele>
        <time>2022-08-31T10:50:33Z</time>
      </trkpt>
      <trkpt lat="49.29384" lon="1.21236">
        <ele>15.27</ele>
        <time>2022-08-31T10:50:55Z</time>
      </trkpt>
      <trkpt lat="49.29364" lon="1.21236">
        <ele>15.33</ele>
        <time>2022-08-31T10:51:17Z</time>
      </trkpt>
      <trkpt lat="49.29338" lon="1.21233">
        <ele>15.34</ele>
        <time>2022-08-31T10:51:41Z</time>
      </trkpt>
      <trkpt lat="49.29318" lon="1.21239">
        <ele>14.88</ele>
        <time>2022-08-31T10:52:01Z</time>
      </trkpt>
      <trkpt lat="49.29306" lon="1.21231">
        <ele>15.3</ele>
        <time>2022-08-31T10:52:23Z</time>
      </trkpt>
      <trkpt lat="49.29291" lon="1.21225">
        <ele>17.02</ele>
        <time>2022-08-31T10:52:40Z</time>
      </trkpt>
      <trkpt lat="49.29277" lon="1.21223">
        <ele>16.64</ele>
        <time>2022-08-31T10:52:59Z</time>
      </trkpt>
      <trkpt lat="49.29271" lon="1.21206">
        <ele>16</ele>
        <time>2022-08-31T10:53:22Z</time>
      </trkpt>
      <trkpt lat="49.29268" lon="1.21186">
        <ele>14.71</ele>
        <time>2022-08-31T10:53:44Z</time>
      </trkpt>
      <trkpt lat="49.29261" lon="1.21171">
        <ele>14.35</ele>
        <time>2022-08-31T10:54:23Z</time>
      </trkpt>
      <trkpt lat="49.29246" lon="1.21151">
        <ele>14.74</ele>
        <time>2022-08-31T10:54:44Z</time>
      </trkpt>
      <trkpt lat="49.29224" lon="1.21166">
        <ele>14.83</ele>
        <time>2022-08-31T10:55:08Z</time>
      </trkpt>
      <trkpt lat="49.29202" lon="1.21182">
        <ele>15.01</ele>
        <time>2022-08-31T10:55:33Z</time>
      </trkpt>
      <trkpt lat="49.29183" lon="1.21197">
        <ele>14.95</ele>
        <time>2022-08-31T10:55:54Z</time>
      </trkpt>
      <trkpt lat="49.29164" lon="1.21214">
        <ele>15.07</ele>
        <time>2022-08-31T10:56:17Z</time>
      </trkpt>
      <trkpt lat="49.29142" lon="1.21231">
        <ele>14.94</ele>
        <time>2022-08-31T10:56:40Z</time>
      </trkpt>
      <trkpt lat="49.29135" lon="1.2124">
        <ele>15</ele>
        <time>2022-08-31T10:56:58Z</time>
      </trkpt>
      <trkpt lat="49.29118" lon="1.21256">
        <ele>15.34</ele>
        <time>2022-08-31T10:57:19Z</time>
      </trkpt>
      <trkpt lat="49.29102" lon="1.21267">
        <ele>15.52</ele>
        <time>2022-08-31T10:57:36Z</time>
      </trkpt>
      <trkpt lat="49.29083" lon="1.21276">
        <ele>15.63</ele>
        <time>2022-08-31T10:57:53Z</time>
      </trkpt>
      <trkpt lat="49.29069" lon="1.21285">
        <ele>15.65</ele>
        <time>2022-08-31T10:58:14Z</time>
      </trkpt>
      <trkpt lat="49.29068" lon="1.21284">
        <ele>15.46</ele>
        <time>2022-08-31T10:58:44Z</time>
      </trkpt>
      <trkpt lat="49.29065" lon="1.21284">
        <ele>15.63</ele>
        <time>2022-08-31T10:59:19Z</time>
      </trkpt>
      <trkpt lat="49.29044" lon="1.21302">
        <ele>15.51</ele>
        <time>2022-08-31T10:59:42Z</time>
      </trkpt>
      <trkpt lat="49.29021" lon="1.21318">
        <ele>15.49</ele>
        <time>2022-08-31T11:00:08Z</time>
      </trkpt>
      <trkpt lat="49.28994" lon="1.21338">
        <ele>15.97</ele>
        <time>2022-08-31T11:00:38Z</time>
      </trkpt>
      <trkpt lat="49.28982" lon="1.21344">
        <ele>17.01</ele>
        <time>2022-08-31T11:00:52Z</time>
      </trkpt>
      <trkpt lat="49.2896" lon="1.21357">
        <ele>18.11</ele>
        <time>2022-08-31T11:01:15Z</time>
      </trkpt>
      <trkpt lat="49.28941" lon="1.2137">
        <ele>18.12</ele>
        <time>2022-08-31T11:01:36Z</time>
      </trkpt>
      <trkpt lat="49.28927" lon="1.21376">
        <ele>17.79</ele>
        <time>2022-08-31T11:01:58Z</time>
      </trkpt>
      <trkpt lat="49.28916" lon="1.2137">
        <ele>17.36</ele>
        <time>2022-08-31T11:02:13Z</time>
      </trkpt>
      <trkpt lat="49.28908" lon="1.21337">
        <ele>17</ele>
        <time>2022-08-31T11:02:36Z</time>
      </trkpt>
      <trkpt lat="49.28894" lon="1.21304">
        <ele>16.96</ele>
        <time>2022-08-31T11:03:01Z</time>
      </trkpt>
      <trkpt lat="49.28883" lon="1.21273">
        <ele>16.71</ele>
        <time>2022-08-31T11:03:24Z</time>
      </trkpt>
      <trkpt lat="49.28873" lon="1.2124">
        <ele>16.67</ele>
        <time>2022-08-31T11:03:49Z</time>
      </trkpt>
      <trkpt lat="49.28869" lon="1.21231">
        <ele>16.94</ele>
        <time>2022-08-31T11:04:10Z</time>
      </trkpt>
      <trkpt lat="49.28866" lon="1.2122">
        <ele>16.72</ele>
        <time>2022-08-31T11:04:51Z</time>
      </trkpt>
      <trkpt lat="49.28854" lon="1.21183">
        <ele>16.83</ele>
        <time>2022-08-31T11:05:19Z</time>
      </trkpt>
      <trkpt lat="49.28843" lon="1.21155">
        <ele>16.95</ele>
        <time>2022-08-31T11:05:43Z</time>
      </trkpt>
      <trkpt lat="49.28842" lon="1.21154">
        <ele>16.96</ele>
        <time>2022-08-31T11:05:44Z</time>
      </trkpt>
      <trkpt lat="49.28839" lon="1.21143">
        <ele>16.97</ele>
        <time>2022-08-31T11:05:53Z</time>
      </trkpt>
      <trkpt lat="49.28828" lon="1.2111">
        <ele>16.8</ele>
        <time>2022-08-31T11:06:19Z</time>
      </trkpt>
      <trkpt lat="49.28815" lon="1.21071">
        <ele>17.04</ele>
        <time>2022-08-31T11:06:49Z</time>
      </trkpt>
      <trkpt lat="49.28801" lon="1.21036">
        <ele>17.35</ele>
        <time>2022-08-31T11:07:17Z</time>
      </trkpt>
      <trkpt lat="49.28784" lon="1.21012">
        <ele>17.54</ele>
        <time>2022-08-31T11:07:45Z</time>
      </trkpt>
      <trkpt lat="49.28772" lon="1.2101">
        <ele>17.28</ele>
        <time>2022-08-31T11:08:09Z</time>
      </trkpt>
      <trkpt lat="49.28759" lon="1.21018">
        <ele>16.91</ele>
        <time>2022-08-31T11:08:27Z</time>
      </trkpt>
      <trkpt lat="49.28748" lon="1.21025">
        <ele>16.64</ele>
        <time>2022-08-31T11:08:44Z</time>
      </trkpt>
      <trkpt lat="49.28746" lon="1.21036">
        <ele>16.83</ele>
        <time>2022-08-31T11:09:04Z</time>
      </trkpt>
      <trkpt lat="49.28744" lon="1.21033">
        <ele>16.82</ele>
        <time>2022-08-31T11:09:17Z</time>
      </trkpt>
      <trkpt lat="49.28725" lon="1.21043">
        <ele>16.86</ele>
        <time>2022-08-31T11:09:39Z</time>
      </trkpt>
      <trkpt lat="49.28708" lon="1.21063">
        <ele>17.07</ele>
        <time>2022-08-31T11:09:59Z</time>
      </trkpt>
      <trkpt lat="49.28696" lon="1.21081">
        <ele>16.94</ele>
        <time>2022-08-31T11:10:18Z</time>
      </trkpt>
      <trkpt lat="49.28693" lon="1.21085">
        <ele>16.92</ele>
        <time>2022-08-31T11:10:22Z</time>
      </trkpt>
      <trkpt lat="49.2868" lon="1.21108">
        <ele>16.84</ele>
        <time>2022-08-31T11:10:43Z</time>
      </trkpt>
      <trkpt lat="49.2867" lon="1.21127">
        <ele>16.78</ele>
        <time>2022-08-31T11:11:01Z</time>
      </trkpt>
      <trkpt lat="49.28657" lon="1.2116">
        <ele>16.65</ele>
        <time>2022-08-31T11:11:28Z</time>
      </trkpt>
      <trkpt lat="49.28648" lon="1.21187">
        <ele>16.41</ele>
        <time>2022-08-31T11:11:50Z</time>
      </trkpt>
      <trkpt lat="49.28642" lon="1.21214">
        <ele>16.42</ele>
        <time>2022-08-31T11:12:13Z</time>
      </trkpt>
      <trkpt lat="49.28641" lon="1.21218">
        <ele>16.43</ele>
        <time>2022-08-31T11:12:18Z</time>
      </trkpt>
      <trkpt lat="49.28642" lon="1.21222">
        <ele>16.43</ele>
        <time>2022-08-31T11:12:20Z</time>
      </trkpt>
      <trkpt lat="49.28641" lon="1.21226">
        <ele>16.43</ele>
        <time>2022-08-31T11:12:23Z</time>
      </trkpt>
      <trkpt lat="49.28639" lon="1.21256">
        <ele>16.47</ele>
        <time>2022-08-31T11:12:42Z</time>
      </trkpt>
      <trkpt lat="49.28634" lon="1.21281">
        <ele>16.39</ele>
        <time>2022-08-31T11:13:01Z</time>
      </trkpt>
      <trkpt lat="49.28628" lon="1.21314">
        <ele>16.71</ele>
        <time>2022-08-31T11:13:23Z</time>
      </trkpt>
      <trkpt lat="49.28628" lon="1.21322">
        <ele>16.74</ele>
        <time>2022-08-31T11:13:28Z</time>
      </trkpt>
      <trkpt lat="49.28624" lon="1.21342">
        <ele>16.82</ele>
        <time>2022-08-31T11:13:47Z</time>
      </trkpt>
      <trkpt lat="49.28618" lon="1.21366">
        <ele>16.86</ele>
        <time>2022-08-31T11:14:06Z</time>
      </trkpt>
      <trkpt lat="49.2861" lon="1.21388">
        <ele>16.86</ele>
        <time>2022-08-31T11:14:24Z</time>
      </trkpt>
      <trkpt lat="49.28595" lon="1.2141">
        <ele>16.66</ele>
        <time>2022-08-31T11:14:44Z</time>
      </trkpt>
      <trkpt lat="49.28584" lon="1.21428">
        <ele>16.7</ele>
        <time>2022-08-31T11:15:01Z</time>
      </trkpt>
      <trkpt lat="49.28568" lon="1.21449">
        <ele>16.66</ele>
        <time>2022-08-31T11:15:22Z</time>
      </trkpt>
      <trkpt lat="49.28565" lon="1.21454">
        <ele>16.68</ele>
        <time>2022-08-31T11:15:27Z</time>
      </trkpt>
      <trkpt lat="49.28549" lon="1.21472">
        <ele>16.68</ele>
        <time>2022-08-31T11:15:48Z</time>
      </trkpt>
      <trkpt lat="49.28538" lon="1.21488">
        <ele>16.66</ele>
        <time>2022-08-31T11:16:07Z</time>
      </trkpt>
      <trkpt lat="49.28531" lon="1.21499">
        <ele>16.39</ele>
        <time>2022-08-31T11:16:21Z</time>
      </trkpt>
      <trkpt lat="49.28523" lon="1.21502">
        <ele>16.48</ele>
        <time>2022-08-31T11:16:44Z</time>
      </trkpt>
      <trkpt lat="49.2852" lon="1.21502">
        <ele>16.51</ele>
        <time>2022-08-31T11:17:05Z</time>
      </trkpt>
      <trkpt lat="49.28517" lon="1.21502">
        <ele>16.47</ele>
        <time>2022-08-31T11:17:13Z</time>
      </trkpt>
      <trkpt lat="49.2851" lon="1.21506">
        <ele>16.54</ele>
        <time>2022-08-31T11:17:28Z</time>
      </trkpt>
      <trkpt lat="49.2851" lon="1.21516">
        <ele>16.49</ele>
        <time>2022-08-31T11:17:50Z</time>
      </trkpt>
      <trkpt lat="49.28508" lon="1.21508">
        <ele>16.49</ele>
        <time>2022-08-31T11:18:20Z</time>
      </trkpt>
      <trkpt lat="49.28478" lon="1.21514">
        <ele>16.67</ele>
        <time>2022-08-31T11:18:52Z</time>
      </trkpt>
      <trkpt lat="49.28456" lon="1.21523">
        <ele>16.7</ele>
        <time>2022-08-31T11:19:14Z</time>
      </trkpt>
      <trkpt lat="49.28431" lon="1.21529">
        <ele>16.65</ele>
        <time>2022-08-31T11:19:41Z</time>
      </trkpt>
      <trkpt lat="49.28417" lon="1.21538">
        <ele>16.87</ele>
        <time>2022-08-31T11:20:04Z</time>
      </trkpt>
      <trkpt lat="49.28409" lon="1.21542">
        <ele>17.04</ele>
        <time>2022-08-31T11:20:14Z</time>
      </trkpt>
      <trkpt lat="49.28403" lon="1.21545">
        <ele>17.14</ele>
        <time>2022-08-31T11:20:20Z</time>
      </trkpt>
      <trkpt lat="49.28385" lon="1.21557">
        <ele>17.14</ele>
        <time>2022-08-31T11:20:39Z</time>
      </trkpt>
      <trkpt lat="49.28372" lon="1.21566">
        <ele>17.21</ele>
        <time>2022-08-31T11:20:54Z</time>
      </trkpt>
      <trkpt lat="49.28357" lon="1.21574">
        <ele>17.11</ele>
        <time>2022-08-31T11:21:10Z</time>
      </trkpt>
      <trkpt lat="49.28343" lon="1.21579">
        <ele>17.35</ele>
        <time>2022-08-31T11:21:28Z</time>
      </trkpt>
      <trkpt lat="49.28327" lon="1.2159">
        <ele>17.43</ele>
        <time>2022-08-31T11:21:48Z</time>
      </trkpt>
      <trkpt lat="49.28323" lon="1.21588">
        <ele>17.14</ele>
        <time>2022-08-31T11:22:08Z</time>
      </trkpt>
      <trkpt lat="49.28314" lon="1.21605">
        <ele>17.24</ele>
        <time>2022-08-31T11:22:27Z</time>
      </trkpt>
      <trkpt lat="49.283" lon="1.21608">
        <ele>17.23</ele>
        <time>2022-08-31T11:22:43Z</time>
      </trkpt>
      <trkpt lat="49.28287" lon="1.21613">
        <ele>17.42</ele>
        <time>2022-08-31T11:23:03Z</time>
      </trkpt>
      <trkpt lat="49.28269" lon="1.21621">
        <ele>17.29</ele>
        <time>2022-08-31T11:23:28Z</time>
      </trkpt>
      <trkpt lat="49.28268" lon="1.21615">
        <ele>17.41</ele>
        <time>2022-08-31T11:23:56Z</time>
      </trkpt>
      <trkpt lat="49.28248" lon="1.21617">
        <ele>17.46</ele>
        <time>2022-08-31T11:24:19Z</time>
      </trkpt>
      <trkpt lat="49.28224" lon="1.21636">
        <ele>17.49</ele>
        <time>2022-08-31T11:24:47Z</time>
      </trkpt>
      <trkpt lat="49.28217" lon="1.2164">
        <ele>17.38</ele>
        <time>2022-08-31T11:25:04Z</time>
      </trkpt>
      <trkpt lat="49.28203" lon="1.21654">
        <ele>17.62</ele>
        <time>2022-08-31T11:25:22Z</time>
      </trkpt>
      <trkpt lat="49.28181" lon="1.2167">
        <ele>17.81</ele>
        <time>2022-08-31T11:25:48Z</time>
      </trkpt>
      <trkpt lat="49.28167" lon="1.21682">
        <ele>17.84</ele>
        <time>2022-08-31T11:26:06Z</time>
      </trkpt>
      <trkpt lat="49.28143" lon="1.21693">
        <ele>17.84</ele>
        <time>2022-08-31T11:26:30Z</time>
      </trkpt>
      <trkpt lat="49.28129" lon="1.21706">
        <ele>17.95</ele>
        <time>2022-08-31T11:26:50Z</time>
      </trkpt>
      <trkpt lat="49.28118" lon="1.21717">
        <ele>17.8</ele>
        <time>2022-08-31T11:27:11Z</time>
      </trkpt>
      <trkpt lat="49.28109" lon="1.21724">
        <ele>17.63</ele>
        <time>2022-08-31T11:27:34Z</time>
      </trkpt>
      <trkpt lat="49.28086" lon="1.21734">
        <ele>17.85</ele>
        <time>2022-08-31T11:27:57Z</time>
      </trkpt>
      <trkpt lat="49.28072" lon="1.21745">
        <ele>17.8</ele>
        <time>2022-08-31T11:28:13Z</time>
      </trkpt>
      <trkpt lat="49.28055" lon="1.21763">
        <ele>17.61</ele>
        <time>2022-08-31T11:28:35Z</time>
      </trkpt>
      <trkpt lat="49.28041" lon="1.21781">
        <ele>17.49</ele>
        <time>2022-08-31T11:28:54Z</time>
      </trkpt>
      <trkpt lat="49.28035" lon="1.21793">
        <ele>17.64</ele>
        <time>2022-08-31T11:29:03Z</time>
      </trkpt>
      <trkpt lat="49.2803" lon="1.21799">
        <ele>17.65</ele>
        <time>2022-08-31T11:29:08Z</time>
      </trkpt>
      <trkpt lat="49.28011" lon="1.21827">
        <ele>17.73</ele>
        <time>2022-08-31T11:29:32Z</time>
      </trkpt>
      <trkpt lat="49.27991" lon="1.21856">
        <ele>17.68</ele>
        <time>2022-08-31T11:29:58Z</time>
      </trkpt>
      <trkpt lat="49.27976" lon="1.21875">
        <ele>17.97</ele>
        <time>2022-08-31T11:30:16Z</time>
      </trkpt>
      <trkpt lat="49.27959" lon="1.21898">
        <ele>18.02</ele>
        <time>2022-08-31T11:30:37Z</time>
      </trkpt>
      <trkpt lat="49.27959" lon="1.219">
        <ele>18.02</ele>
        <time>2022-08-31T11:30:38Z</time>
      </trkpt>
      <trkpt lat="49.27943" lon="1.2192">
        <ele>18.05</ele>
        <time>2022-08-31T11:30:57Z</time>
      </trkpt>
      <trkpt lat="49.27928" lon="1.21942">
        <ele>18.03</ele>
        <time>2022-08-31T11:31:17Z</time>
      </trkpt>
      <trkpt lat="49.27914" lon="1.21956">
        <ele>18.03</ele>
        <time>2022-08-31T11:31:36Z</time>
      </trkpt>
      <trkpt lat="49.27895" lon="1.2197">
        <ele>18.1</ele>
        <time>2022-08-31T11:31:55Z</time>
      </trkpt>
      <trkpt lat="49.27875" lon="1.21983">
        <ele>18.09</ele>
        <time>2022-08-31T11:32:19Z</time>
      </trkpt>
      <trkpt lat="49.27855" lon="1.21999">
        <ele>18.1</ele>
        <time>2022-08-31T11:32:40Z</time>
      </trkpt>
      <trkpt lat="49.2784" lon="1.22006">
        <ele>18.27</ele>
        <time>2022-08-31T11:32:57Z</time>
      </trkpt>
      <trkpt lat="49.27839" lon="1.22006">
        <ele>18.27</ele>
        <time>2022-08-31T11:32:58Z</time>
      </trkpt>
      <trkpt lat="49.27829" lon="1.22007">
        <ele>18</ele>
        <time>2022-08-31T11:33:15Z</time>
      </trkpt>
      <trkpt lat="49.27812" lon="1.22009">
        <ele>18.06</ele>
        <time>2022-08-31T11:33:36Z</time>
      </trkpt>
      <trkpt lat="49.27806" lon="1.2201">
        <ele>18.07</ele>
        <time>2022-08-31T11:33:44Z</time>
      </trkpt>
      <trkpt lat="49.27786" lon="1.22012">
        <ele>18.21</ele>
        <time>2022-08-31T11:34:03Z</time>
      </trkpt>
      <trkpt lat="49.27773" lon="1.22018">
        <ele>18.24</ele>
        <time>2022-08-31T11:34:19Z</time>
      </trkpt>
      <trkpt lat="49.27758" lon="1.22022">
        <ele>18.46</ele>
        <time>2022-08-31T11:34:34Z</time>
      </trkpt>
      <trkpt lat="49.27741" lon="1.22024">
        <ele>18.37</ele>
        <time>2022-08-31T11:34:50Z</time>
      </trkpt>
      <trkpt lat="49.27723" lon="1.22025">
        <ele>18.49</ele>
        <time>2022-08-31T11:35:08Z</time>
      </trkpt>
      <trkpt lat="49.27706" lon="1.22029">
        <ele>18.5</ele>
        <time>2022-08-31T11:35:23Z</time>
      </trkpt>
      <trkpt lat="49.27703" lon="1.22028">
        <ele>18.49</ele>
        <time>2022-08-31T11:35:26Z</time>
      </trkpt>
      <trkpt lat="49.27685" lon="1.22033">
        <ele>18.52</ele>
        <time>2022-08-31T11:35:43Z</time>
      </trkpt>
      <trkpt lat="49.27673" lon="1.22034">
        <ele>18.55</ele>
        <time>2022-08-31T11:35:53Z</time>
      </trkpt>
      <trkpt lat="49.2766" lon="1.22045">
        <ele>18.15</ele>
        <time>2022-08-31T11:36:11Z</time>
      </trkpt>
      <trkpt lat="49.27639" lon="1.22046">
        <ele>18.06</ele>
        <time>2022-08-31T11:36:31Z</time>
      </trkpt>
      <trkpt lat="49.27622" lon="1.22049">
        <ele>18.12</ele>
        <time>2022-08-31T11:36:48Z</time>
      </trkpt>
      <trkpt lat="49.2762" lon="1.2205">
        <ele>18.16</ele>
        <time>2022-08-31T11:36:50Z</time>
      </trkpt>
      <trkpt lat="49.27606" lon="1.22056">
        <ele>18.34</ele>
        <time>2022-08-31T11:37:06Z</time>
      </trkpt>
      <trkpt lat="49.27586" lon="1.22067">
        <ele>18.6</ele>
        <time>2022-08-31T11:37:26Z</time>
      </trkpt>
      <trkpt lat="49.27577" lon="1.22077">
        <ele>19.02</ele>
        <time>2022-08-31T11:37:37Z</time>
      </trkpt>
      <trkpt lat="49.27564" lon="1.22091">
        <ele>18.76</ele>
        <time>2022-08-31T11:37:51Z</time>
      </trkpt>
      <trkpt lat="49.27549" lon="1.2211">
        <ele>18.25</ele>
        <time>2022-08-31T11:38:08Z</time>
      </trkpt>
      <trkpt lat="49.27542" lon="1.22117">
        <ele>18.25</ele>
        <time>2022-08-31T11:38:16Z</time>
      </trkpt>
      <trkpt lat="49.27532" lon="1.22127">
        <ele>18.35</ele>
        <time>2022-08-31T11:38:28Z</time>
      </trkpt>
      <trkpt lat="49.27527" lon="1.22132">
        <ele>18.28</ele>
        <time>2022-08-31T11:38:32Z</time>
      </trkpt>
      <trkpt lat="49.27515" lon="1.22148">
        <ele>18.12</ele>
        <time>2022-08-31T11:38:49Z</time>
      </trkpt>
      <trkpt lat="49.27509" lon="1.22156">
        <ele>18.1</ele>
        <time>2022-08-31T11:38:58Z</time>
      </trkpt>
      <trkpt lat="49.27507" lon="1.22157">
        <ele>18.1</ele>
        <time>2022-08-31T11:39:01Z</time>
      </trkpt>
      <trkpt lat="49.275" lon="1.22163">
        <ele>18.11</ele>
        <time>2022-08-31T11:39:08Z</time>
      </trkpt>
      <trkpt lat="49.27484" lon="1.22178">
        <ele>18.31</ele>
        <time>2022-08-31T11:39:26Z</time>
      </trkpt>
      <trkpt lat="49.27471" lon="1.22192">
        <ele>18.23</ele>
        <time>2022-08-31T11:39:43Z</time>
      </trkpt>
      <trkpt lat="49.27464" lon="1.22198">
        <ele>18.19</ele>
        <time>2022-08-31T11:39:50Z</time>
      </trkpt>
      <trkpt lat="49.27449" lon="1.2221">
        <ele>18.16</ele>
        <time>2022-08-31T11:40:06Z</time>
      </trkpt>
      <trkpt lat="49.27439" lon="1.22217">
        <ele>18.47</ele>
        <time>2022-08-31T11:40:19Z</time>
      </trkpt>
      <trkpt lat="49.27425" lon="1.22229">
        <ele>18.63</ele>
        <time>2022-08-31T11:40:35Z</time>
      </trkpt>
      <trkpt lat="49.27416" lon="1.22239">
        <ele>18.72</ele>
        <time>2022-08-31T11:40:45Z</time>
      </trkpt>
      <trkpt lat="49.27404" lon="1.22263">
        <ele>18.77</ele>
        <time>2022-08-31T11:41:05Z</time>
      </trkpt>
      <trkpt lat="49.27393" lon="1.22275">
        <ele>19.01</ele>
        <time>2022-08-31T11:41:23Z</time>
      </trkpt>
      <trkpt lat="49.27383" lon="1.22293">
        <ele>18.91</ele>
        <time>2022-08-31T11:41:42Z</time>
      </trkpt>
      <trkpt lat="49.27378" lon="1.22294">
        <ele>18.99</ele>
        <time>2022-08-31T11:41:48Z</time>
      </trkpt>
      <trkpt lat="49.27362" lon="1.22288">
        <ele>19.12</ele>
        <time>2022-08-31T11:42:03Z</time>
      </trkpt>
      <trkpt lat="49.27342" lon="1.22286">
        <ele>20.9</ele>
        <time>2022-08-31T11:42:26Z</time>
      </trkpt>
      <trkpt lat="49.27339" lon="1.22269">
        <ele>21.46</ele>
        <time>2022-08-31T11:42:39Z</time>
      </trkpt>
      <trkpt lat="49.27331" lon="1.2224">
        <ele>21.81</ele>
        <time>2022-08-31T11:43:00Z</time>
      </trkpt>
      <trkpt lat="49.27322" lon="1.22212">
        <ele>21.93</ele>
        <time>2022-08-31T11:43:22Z</time>
      </trkpt>
      <trkpt lat="49.27318" lon="1.22192">
        <ele>21.6</ele>
        <time>2022-08-31T11:43:40Z</time>
      </trkpt>
      <trkpt lat="49.27327" lon="1.22192">
        <ele>21.09</ele>
        <time>2022-08-31T11:43:58Z</time>
      </trkpt>
      <trkpt lat="49.27337" lon="1.22204">
        <ele>18.69</ele>
        <time>2022-08-31T11:44:15Z</time>
      </trkpt>
      <trkpt lat="49.27349" lon="1.22197">
        <ele>17.89</ele>
        <time>2022-08-31T11:44:29Z</time>
      </trkpt>
      <trkpt lat="49.27365" lon="1.2219">
        <ele>17.88</ele>
        <time>2022-08-31T11:44:44Z</time>
      </trkpt>
      <trkpt lat="49.27383" lon="1.22178">
        <ele>17.77</ele>
        <time>2022-08-31T11:45:04Z</time>
      </trkpt>
      <trkpt lat="49.27391" lon="1.22173">
        <ele>17.7</ele>
        <time>2022-08-31T11:45:13Z</time>
      </trkpt>
      <trkpt lat="49.2741" lon="1.22162">
        <ele>17.47</ele>
        <time>2022-08-31T11:45:32Z</time>
      </trkpt>
      <trkpt lat="49.27415" lon="1.22156">
        <ele>17.53</ele>
        <time>2022-08-31T11:45:39Z</time>
      </trkpt>
      <trkpt lat="49.27428" lon="1.22146">
        <ele>17.66</ele>
        <time>2022-08-31T11:45:52Z</time>
      </trkpt>
      <trkpt lat="49.2745" lon="1.22127">
        <ele>17.56</ele>
        <time>2022-08-31T11:46:13Z</time>
      </trkpt>
      <trkpt lat="49.2746" lon="1.22119">
        <ele>17.59</ele>
        <time>2022-08-31T11:46:25Z</time>
      </trkpt>
      <trkpt lat="49.27467" lon="1.22114">
        <ele>17.6</ele>
        <time>2022-08-31T11:46:29Z</time>
      </trkpt>
      <trkpt lat="49.27481" lon="1.22101">
        <ele>17.62</ele>
        <time>2022-08-31T11:46:45Z</time>
      </trkpt>
      <trkpt lat="49.27492" lon="1.22091">
        <ele>17.68</ele>
        <time>2022-08-31T11:47:10Z</time>
      </trkpt>
      <trkpt lat="49.27512" lon="1.2207">
        <ele>17.7</ele>
        <time>2022-08-31T11:47:34Z</time>
      </trkpt>
      <trkpt lat="49.27528" lon="1.22049">
        <ele>17.55</ele>
        <time>2022-08-31T11:47:55Z</time>
      </trkpt>
      <trkpt lat="49.27531" lon="1.22047">
        <ele>17.58</ele>
        <time>2022-08-31T11:48:00Z</time>
      </trkpt>
      <trkpt lat="49.2754" lon="1.22036">
        <ele>17.48</ele>
        <time>2022-08-31T11:48:21Z</time>
      </trkpt>
      <trkpt lat="49.27548" lon="1.22027">
        <ele>17.51</ele>
        <time>2022-08-31T11:48:30Z</time>
      </trkpt>
      <trkpt lat="49.27565" lon="1.2201">
        <ele>17.51</ele>
        <time>2022-08-31T11:48:49Z</time>
      </trkpt>
      <trkpt lat="49.27577" lon="1.22002">
        <ele>17.53</ele>
        <time>2022-08-31T11:49:03Z</time>
      </trkpt>
      <trkpt lat="49.27581" lon="1.21999">
        <ele>17.79</ele>
        <time>2022-08-31T11:49:08Z</time>
      </trkpt>
      <trkpt lat="49.27604" lon="1.21981">
        <ele>17.98</ele>
        <time>2022-08-31T11:49:31Z</time>
      </trkpt>
      <trkpt lat="49.27615" lon="1.21973">
        <ele>17.97</ele>
        <time>2022-08-31T11:49:44Z</time>
      </trkpt>
      <trkpt lat="49.27629" lon="1.21968">
        <ele>17.94</ele>
        <time>2022-08-31T11:49:58Z</time>
      </trkpt>
      <trkpt lat="49.27644" lon="1.21965">
        <ele>18</ele>
        <time>2022-08-31T11:50:14Z</time>
      </trkpt>
      <trkpt lat="49.27646" lon="1.21965">
        <ele>18.07</ele>
        <time>2022-08-31T11:50:16Z</time>
      </trkpt>
      <trkpt lat="49.27666" lon="1.21964">
        <ele>18.26</ele>
        <time>2022-08-31T11:50:31Z</time>
      </trkpt>
      <trkpt lat="49.27688" lon="1.21963">
        <ele>18.29</ele>
        <time>2022-08-31T11:50:50Z</time>
      </trkpt>
      <trkpt lat="49.27703" lon="1.21961">
        <ele>18.02</ele>
        <time>2022-08-31T11:51:05Z</time>
      </trkpt>
      <trkpt lat="49.27705" lon="1.21961">
        <ele>18.02</ele>
        <time>2022-08-31T11:51:07Z</time>
      </trkpt>
      <trkpt lat="49.27723" lon="1.21956">
        <ele>17.98</ele>
        <time>2022-08-31T11:51:24Z</time>
      </trkpt>
      <trkpt lat="49.27741" lon="1.21951">
        <ele>17.8</ele>
        <time>2022-08-31T11:51:41Z</time>
      </trkpt>
      <trkpt lat="49.27767" lon="1.21945">
        <ele>17.9</ele>
        <time>2022-08-31T11:52:02Z</time>
      </trkpt>
      <trkpt lat="49.27783" lon="1.2194">
        <ele>18.07</ele>
        <time>2022-08-31T11:52:18Z</time>
      </trkpt>
      <trkpt lat="49.27805" lon="1.21936">
        <ele>18.08</ele>
        <time>2022-08-31T11:52:37Z</time>
      </trkpt>
      <trkpt lat="49.27825" lon="1.21928">
        <ele>18.31</ele>
        <time>2022-08-31T11:52:57Z</time>
      </trkpt>
      <trkpt lat="49.27843" lon="1.21922">
        <ele>18.34</ele>
        <time>2022-08-31T11:53:17Z</time>
      </trkpt>
      <trkpt lat="49.27838" lon="1.21924">
        <ele>18.53</ele>
        <time>2022-08-31T11:53:34Z</time>
      </trkpt>
      <trkpt lat="49.27849" lon="1.2192">
        <ele>18.54</ele>
        <time>2022-08-31T11:53:51Z</time>
      </trkpt>
      <trkpt lat="49.27868" lon="1.21913">
        <ele>18.52</ele>
        <time>2022-08-31T11:54:08Z</time>
      </trkpt>
      <trkpt lat="49.27873" lon="1.21909">
        <ele>18.77</ele>
        <time>2022-08-31T11:54:32Z</time>
      </trkpt>
      <trkpt lat="49.27876" lon="1.21907">
        <ele>18.91</ele>
        <time>2022-08-31T11:54:36Z</time>
      </trkpt>
      <trkpt lat="49.27893" lon="1.2189">
        <ele>19.05</ele>
        <time>2022-08-31T11:54:54Z</time>
      </trkpt>
      <trkpt lat="49.27909" lon="1.2187">
        <ele>18.91</ele>
        <time>2022-08-31T11:55:15Z</time>
      </trkpt>
      <trkpt lat="49.27926" lon="1.21848">
        <ele>18.89</ele>
        <time>2022-08-31T11:55:35Z</time>
      </trkpt>
      <trkpt lat="49.27938" lon="1.21832">
        <ele>18.86</ele>
        <time>2022-08-31T11:55:57Z</time>
      </trkpt>
      <trkpt lat="49.27951" lon="1.21809">
        <ele>19.09</ele>
        <time>2022-08-31T11:56:16Z</time>
      </trkpt>
      <trkpt lat="49.27967" lon="1.21787">
        <ele>19.23</ele>
        <time>2022-08-31T11:56:39Z</time>
      </trkpt>
      <trkpt lat="49.27973" lon="1.21776">
        <ele>19.45</ele>
        <time>2022-08-31T11:57:00Z</time>
      </trkpt>
      <trkpt lat="49.27991" lon="1.21754">
        <ele>19.23</ele>
        <time>2022-08-31T11:57:19Z</time>
      </trkpt>
      <trkpt lat="49.28006" lon="1.21722">
        <ele>19.19</ele>
        <time>2022-08-31T11:57:43Z</time>
      </trkpt>
      <trkpt lat="49.2802" lon="1.21695">
        <ele>20.94</ele>
        <time>2022-08-31T11:58:06Z</time>
      </trkpt>
      <trkpt lat="49.28036" lon="1.21665">
        <ele>21.11</ele>
        <time>2022-08-31T11:58:28Z</time>
      </trkpt>
      <trkpt lat="49.2804" lon="1.2165">
        <ele>21.08</ele>
        <time>2022-08-31T11:58:50Z</time>
      </trkpt>
      <trkpt lat="49.28054" lon="1.21624">
        <ele>21.21</ele>
        <time>2022-08-31T11:59:10Z</time>
      </trkpt>
      <trkpt lat="49.28074" lon="1.21599">
        <ele>21.23</ele>
        <time>2022-08-31T11:59:32Z</time>
      </trkpt>
      <trkpt lat="49.28087" lon="1.2157">
        <ele>21.09</ele>
        <time>2022-08-31T11:59:55Z</time>
      </trkpt>
      <trkpt lat="49.28101" lon="1.21548">
        <ele>20.85</ele>
        <time>2022-08-31T12:00:12Z</time>
      </trkpt>
      <trkpt lat="49.28111" lon="1.21533">
        <ele>20.75</ele>
        <time>2022-08-31T12:00:26Z</time>
      </trkpt>
      <trkpt lat="49.2811" lon="1.2154">
        <ele>21.24</ele>
        <time>2022-08-31T12:00:40Z</time>
      </trkpt>
      <trkpt lat="49.28113" lon="1.21529">
        <ele>21.39</ele>
        <time>2022-08-31T12:00:51Z</time>
      </trkpt>
      <trkpt lat="49.28121" lon="1.21521">
        <ele>21.39</ele>
        <time>2022-08-31T12:00:58Z</time>
      </trkpt>
      <trkpt lat="49.28121" lon="1.21518">
        <ele>21.41</ele>
        <time>2022-08-31T12:01:01Z</time>
      </trkpt>
      <trkpt lat="49.28131" lon="1.21503">
        <ele>21.25</ele>
        <time>2022-08-31T12:01:20Z</time>
      </trkpt>
      <trkpt lat="49.28143" lon="1.21493">
        <ele>21.43</ele>
        <time>2022-08-31T12:01:40Z</time>
      </trkpt>
      <trkpt lat="49.28141" lon="1.21485">
        <ele>21.67</ele>
        <time>2022-08-31T12:02:25Z</time>
      </trkpt>
      <trkpt lat="49.28143" lon="1.21491">
        <ele>21.27</ele>
        <time>2022-08-31T12:03:00Z</time>
      </trkpt>
      <trkpt lat="49.28154" lon="1.21476">
        <ele>21.19</ele>
        <time>2022-08-31T12:03:23Z</time>
      </trkpt>
      <trkpt lat="49.28159" lon="1.21469">
        <ele>21.21</ele>
        <time>2022-08-31T12:03:29Z</time>
      </trkpt>
      <trkpt lat="49.28167" lon="1.21464">
        <ele>21.33</ele>
        <time>2022-08-31T12:03:36Z</time>
      </trkpt>
      <trkpt lat="49.28196" lon="1.21434">
        <ele>21.21</ele>
        <time>2022-08-31T12:04:03Z</time>
      </trkpt>
      <trkpt lat="49.2821" lon="1.21414">
        <ele>21.46</ele>
        <time>2022-08-31T12:04:21Z</time>
      </trkpt>
      <trkpt lat="49.28223" lon="1.21399">
        <ele>21.49</ele>
        <time>2022-08-31T12:04:36Z</time>
      </trkpt>
      <trkpt lat="49.28236" lon="1.21386">
        <ele>21.64</ele>
        <time>2022-08-31T12:04:51Z</time>
      </trkpt>
      <trkpt lat="49.2825" lon="1.21369">
        <ele>21.67</ele>
        <time>2022-08-31T12:05:08Z</time>
      </trkpt>
      <trkpt lat="49.28266" lon="1.2135">
        <ele>21.6</ele>
        <time>2022-08-31T12:05:25Z</time>
      </trkpt>
      <trkpt lat="49.2828" lon="1.21332">
        <ele>21.77</ele>
        <time>2022-08-31T12:05:45Z</time>
      </trkpt>
      <trkpt lat="49.28301" lon="1.21302">
        <ele>22.16</ele>
        <time>2022-08-31T12:06:11Z</time>
      </trkpt>
      <trkpt lat="49.28324" lon="1.21265">
        <ele>22.07</ele>
        <time>2022-08-31T12:06:38Z</time>
      </trkpt>
      <trkpt lat="49.28337" lon="1.21242">
        <ele>22.03</ele>
        <time>2022-08-31T12:06:58Z</time>
      </trkpt>
      <trkpt lat="49.28351" lon="1.2122">
        <ele>21.78</ele>
        <time>2022-08-31T12:07:15Z</time>
      </trkpt>
      <trkpt lat="49.28374" lon="1.21196">
        <ele>23.05</ele>
        <time>2022-08-31T12:07:40Z</time>
      </trkpt>
      <trkpt lat="49.28391" lon="1.21174">
        <ele>22.45</ele>
        <time>2022-08-31T12:08:04Z</time>
      </trkpt>
      <trkpt lat="49.2841" lon="1.21153">
        <ele>21.62</ele>
        <time>2022-08-31T12:08:27Z</time>
      </trkpt>
      <trkpt lat="49.2842" lon="1.21143">
        <ele>21.21</ele>
        <time>2022-08-31T12:08:37Z</time>
      </trkpt>
      <trkpt lat="49.28441" lon="1.21127">
        <ele>21.32</ele>
        <time>2022-08-31T12:08:56Z</time>
      </trkpt>
      <trkpt lat="49.28456" lon="1.21118">
        <ele>21.5</ele>
        <time>2022-08-31T12:09:09Z</time>
      </trkpt>
      <trkpt lat="49.28478" lon="1.21105">
        <ele>21.5</ele>
        <time>2022-08-31T12:09:27Z</time>
      </trkpt>
      <trkpt lat="49.28479" lon="1.21104">
        <ele>21.49</ele>
        <time>2022-08-31T12:09:28Z</time>
      </trkpt>
      <trkpt lat="49.28498" lon="1.21097">
        <ele>21.34</ele>
        <time>2022-08-31T12:09:46Z</time>
      </trkpt>
      <trkpt lat="49.28518" lon="1.2109">
        <ele>21.33</ele>
        <time>2022-08-31T12:10:07Z</time>
      </trkpt>
      <trkpt lat="49.28534" lon="1.21081">
        <ele>21.47</ele>
        <time>2022-08-31T12:10:31Z</time>
      </trkpt>
      <trkpt lat="49.28554" lon="1.21066">
        <ele>21.8</ele>
        <time>2022-08-31T12:10:53Z</time>
      </trkpt>
      <trkpt lat="49.28573" lon="1.21057">
        <ele>21.41</ele>
        <time>2022-08-31T12:11:11Z</time>
      </trkpt>
      <trkpt lat="49.28578" lon="1.21055">
        <ele>21.39</ele>
        <time>2022-08-31T12:11:21Z</time>
      </trkpt>
      <trkpt lat="49.2858" lon="1.21053">
        <ele>21.43</ele>
        <time>2022-08-31T12:11:23Z</time>
      </trkpt>
      <trkpt lat="49.28595" lon="1.21039">
        <ele>21.37</ele>
        <time>2022-08-31T12:11:40Z</time>
      </trkpt>
      <trkpt lat="49.28614" lon="1.21027">
        <ele>21.36</ele>
        <time>2022-08-31T12:11:59Z</time>
      </trkpt>
      <trkpt lat="49.28633" lon="1.21012">
        <ele>21.47</ele>
        <time>2022-08-31T12:12:17Z</time>
      </trkpt>
      <trkpt lat="49.28647" lon="1.21005">
        <ele>21.46</ele>
        <time>2022-08-31T12:12:30Z</time>
      </trkpt>
      <trkpt lat="49.28663" lon="1.20994">
        <ele>21.19</ele>
        <time>2022-08-31T12:12:48Z</time>
      </trkpt>
      <trkpt lat="49.28682" lon="1.20983">
        <ele>20.55</ele>
        <time>2022-08-31T12:13:06Z</time>
      </trkpt>
      <trkpt lat="49.28704" lon="1.20972">
        <ele>20.81</ele>
        <time>2022-08-31T12:13:30Z</time>
      </trkpt>
      <trkpt lat="49.28702" lon="1.20973">
        <ele>20.3</ele>
        <time>2022-08-31T12:14:13Z</time>
      </trkpt>
      <trkpt lat="49.28701" lon="1.20971">
        <ele>20.23</ele>
        <time>2022-08-31T12:14:36Z</time>
      </trkpt>
      <trkpt lat="49.28701" lon="1.20971">
        <ele>19.99</ele>
        <time>2022-08-31T12:14:38Z</time>
      </trkpt>
      <trkpt lat="49.28701" lon="1.20969">
        <ele>19.39</ele>
        <time>2022-08-31T12:15:01Z</time>
      </trkpt>
      <trkpt lat="49.28702" lon="1.20967">
        <ele>19.67</ele>
        <time>2022-08-31T12:17:07Z</time>
      </trkpt>
      <trkpt lat="49.287" lon="1.20967">
        <ele>19.51</ele>
        <time>2022-08-31T12:19:55Z</time>
      </trkpt>
      <trkpt lat="49.28702" lon="1.20968">
        <ele>19.5</ele>
        <time>2022-08-31T12:21:32Z</time>
      </trkpt>
      <trkpt lat="49.287" lon="1.20967">
        <ele>19.51</ele>
        <time>2022-08-31T12:23:12Z</time>
      </trkpt>
      <trkpt lat="49.28697" lon="1.20968">
        <ele>19.71</ele>
        <time>2022-08-31T12:23:57Z</time>
      </trkpt>
      <trkpt lat="49.287" lon="1.20964">
        <ele>21.08</ele>
        <time>2022-08-31T12:24:36Z</time>
      </trkpt>
      <trkpt lat="49.28699" lon="1.20961">
        <ele>20.98</ele>
        <time>2022-08-31T12:25:01Z</time>
      </trkpt>
      <trkpt lat="49.28704" lon="1.2095">
        <ele>20.76</ele>
        <time>2022-08-31T12:25:30Z</time>
      </trkpt>
      <trkpt lat="49.28715" lon="1.20934">
        <ele>20.61</ele>
        <time>2022-08-31T12:25:47Z</time>
      </trkpt>
      <trkpt lat="49.28732" lon="1.20909">
        <ele>20.4</ele>
        <time>2022-08-31T12:26:10Z</time>
      </trkpt>
      <trkpt lat="49.28736" lon="1.20902">
        <ele>20.35</ele>
        <time>2022-08-31T12:26:16Z</time>
      </trkpt>
      <trkpt lat="49.28737" lon="1.20896">
        <ele>20.35</ele>
        <time>2022-08-31T12:26:20Z</time>
      </trkpt>
      <trkpt lat="49.2874" lon="1.20887">
        <ele>20.41</ele>
        <time>2022-08-31T12:26:28Z</time>
      </trkpt>
      <trkpt lat="49.28748" lon="1.20875">
        <ele>21.43</ele>
        <time>2022-08-31T12:26:39Z</time>
      </trkpt>
      <trkpt lat="49.28759" lon="1.20864">
        <ele>22.57</ele>
        <time>2022-08-31T12:26:55Z</time>
      </trkpt>
      <trkpt lat="49.28761" lon="1.2086">
        <ele>22.59</ele>
        <time>2022-08-31T12:26:59Z</time>
      </trkpt>
      <trkpt lat="49.28778" lon="1.20845">
        <ele>21.88</ele>
        <time>2022-08-31T12:27:20Z</time>
      </trkpt>
      <trkpt lat="49.28789" lon="1.20834">
        <ele>21.44</ele>
        <time>2022-08-31T12:27:38Z</time>
        <extensions>
          <visugpx:TrkExtension xmlns:visugpx="https://www.visugpx.com/editgpx/">
            <visugpx:node>2</visugpx:node>
            </visugpx:TrkExtension>
        </extensions>
      </trkpt>
      <trkpt lat="49.28803" lon="1.20825">
        <ele>8.7</ele>
      </trkpt>
      <trkpt lat="49.28803" lon="1.20822">
        <ele>8.9</ele>
        <extensions>
          <visugpx:TrkExtension xmlns:visugpx="https://www.visugpx.com/editgpx/">
            <visugpx:node>3</visugpx:node>
            </visugpx:TrkExtension>
        </extensions>
      </trkpt>
      <trkpt lat="49.28788" lon="1.20772">
        <ele>10</ele>
      </trkpt>
      <trkpt lat="49.28787" lon="1.20767">
        <ele>10</ele>
      </trkpt>
      <trkpt lat="49.28782" lon="1.20751">
        <ele>10</ele>
      </trkpt>
      <trkpt lat="49.28779" lon="1.20739">
        <ele>10</ele>
      </trkpt>
      <trkpt lat="49.28776" lon="1.20722">
        <ele>10</ele>
      </trkpt>
      <trkpt lat="49.28767" lon="1.20676">
        <ele>10</ele>
      </trkpt>
      <trkpt lat="49.2876" lon="1.20642">
        <ele>10</ele>
      </trkpt>
      <trkpt lat="49.28758" lon="1.20631">
        <ele>10</ele>
      </trkpt>
      <trkpt lat="49.28755" lon="1.20621">
        <ele>10</ele>
      </trkpt>
      <trkpt lat="49.28727" lon="1.20512">
        <ele>10</ele>
      </trkpt>
      <trkpt lat="49.28724" lon="1.205">
        <ele>10</ele>
      </trkpt>
      <trkpt lat="49.28721" lon="1.20487">
        <ele>10</ele>
      </trkpt>
      <trkpt lat="49.28729" lon="1.20488">
        <ele>10.1</ele>
      </trkpt>
      <trkpt lat="49.28739" lon="1.20487">
        <ele>10.3</ele>
      </trkpt>
      <trkpt lat="49.2875" lon="1.20487">
        <ele>10.5</ele>
      </trkpt>
      <trkpt lat="49.28758" lon="1.20485">
        <ele>10.5</ele>
      </trkpt>
      <trkpt lat="49.2876" lon="1.20484">
        <ele>10.6</ele>
      </trkpt>
      <trkpt lat="49.28763" lon="1.20483">
        <ele>10.6</ele>
      </trkpt>
      <trkpt lat="49.28827" lon="1.20445">
        <ele>11</ele>
      </trkpt>
      <trkpt lat="49.28879" lon="1.20416">
        <ele>11</ele>
        <extensions>
          <visugpx:TrkExtension xmlns:visugpx="https://www.visugpx.com/editgpx/">
            <visugpx:node>4</visugpx:node>
            </visugpx:TrkExtension>
        </extensions>
      </trkpt>
      <trkpt lat="49.28881" lon="1.20397">
        <ele>24.48</ele>
        <time>2022-08-31T12:36:11Z</time>
        <extensions>
          <visugpx:TrkExtension xmlns:visugpx="https://www.visugpx.com/editgpx/">
            <visugpx:node>2</visugpx:node>
            </visugpx:TrkExtension>
        </extensions>
      </trkpt>
      <trkpt lat="49.28876" lon="1.20392">
        <ele>24.56</ele>
        <time>2022-08-31T12:36:15Z</time>
      </trkpt>
      <trkpt lat="49.28874" lon="1.2037">
        <ele>25.15</ele>
        <time>2022-08-31T12:36:31Z</time>
      </trkpt>
      <trkpt lat="49.2887" lon="1.20355">
        <ele>25.17</ele>
        <time>2022-08-31T12:36:41Z</time>
      </trkpt>
      <trkpt lat="49.2887" lon="1.20351">
        <ele>25.26</ele>
        <time>2022-08-31T12:36:43Z</time>
      </trkpt>
      <trkpt lat="49.28873" lon="1.20324">
        <ele>25.66</ele>
        <time>2022-08-31T12:37:00Z</time>
      </trkpt>
      <trkpt lat="49.28867" lon="1.20299">
        <ele>26.34</ele>
        <time>2022-08-31T12:37:19Z</time>
      </trkpt>
      <trkpt lat="49.28858" lon="1.20274">
        <ele>26.9</ele>
        <time>2022-08-31T12:37:36Z</time>
      </trkpt>
      <trkpt lat="49.28857" lon="1.20267">
        <ele>27.01</ele>
        <time>2022-08-31T12:37:41Z</time>
      </trkpt>
      <trkpt lat="49.2886" lon="1.20239">
        <ele>28.51</ele>
        <time>2022-08-31T12:38:01Z</time>
      </trkpt>
      <trkpt lat="49.28861" lon="1.20232">
        <ele>29.07</ele>
        <time>2022-08-31T12:38:07Z</time>
      </trkpt>
      <trkpt lat="49.28865" lon="1.20201">
        <ele>29.73</ele>
        <time>2022-08-31T12:38:27Z</time>
      </trkpt>
      <trkpt lat="49.28865" lon="1.20197">
        <ele>29.96</ele>
        <time>2022-08-31T12:38:29Z</time>
      </trkpt>
      <trkpt lat="49.2887" lon="1.20169">
        <ele>30.97</ele>
        <time>2022-08-31T12:38:46Z</time>
      </trkpt>
      <trkpt lat="49.2887" lon="1.20137">
        <ele>32.2</ele>
        <time>2022-08-31T12:39:09Z</time>
      </trkpt>
      <trkpt lat="49.2887" lon="1.20132">
        <ele>32.49</ele>
        <time>2022-08-31T12:39:12Z</time>
      </trkpt>
      <trkpt lat="49.2887" lon="1.20128">
        <ele>32.54</ele>
        <time>2022-08-31T12:39:14Z</time>
      </trkpt>
      <trkpt lat="49.28867" lon="1.20107">
        <ele>33.63</ele>
        <time>2022-08-31T12:39:30Z</time>
      </trkpt>
      <trkpt lat="49.28868" lon="1.20091">
        <ele>34.93</ele>
        <time>2022-08-31T12:39:50Z</time>
      </trkpt>
      <trkpt lat="49.28868" lon="1.20086">
        <ele>35.34</ele>
        <time>2022-08-31T12:40:11Z</time>
      </trkpt>
      <trkpt lat="49.28868" lon="1.20075">
        <ele>35.41</ele>
        <time>2022-08-31T12:40:19Z</time>
      </trkpt>
      <trkpt lat="49.2887" lon="1.2005">
        <ele>36.32</ele>
        <time>2022-08-31T12:40:39Z</time>
      </trkpt>
      <trkpt lat="49.2887" lon="1.20045">
        <ele>36.5</ele>
        <time>2022-08-31T12:40:43Z</time>
      </trkpt>
      <trkpt lat="49.28871" lon="1.20043">
        <ele>36.64</ele>
        <time>2022-08-31T12:40:45Z</time>
      </trkpt>
      <trkpt lat="49.2887" lon="1.20039">
        <ele>36.77</ele>
        <time>2022-08-31T12:40:49Z</time>
      </trkpt>
      <trkpt lat="49.28869" lon="1.2002">
        <ele>37.48</ele>
        <time>2022-08-31T12:41:01Z</time>
      </trkpt>
      <trkpt lat="49.28859" lon="1.19996">
        <ele>38.69</ele>
        <time>2022-08-31T12:41:18Z</time>
      </trkpt>
      <trkpt lat="49.28859" lon="1.19994">
        <ele>38.71</ele>
        <time>2022-08-31T12:41:19Z</time>
      </trkpt>
      <trkpt lat="49.28859" lon="1.1999">
        <ele>38.83</ele>
        <time>2022-08-31T12:41:20Z</time>
      </trkpt>
      <trkpt lat="49.28859" lon="1.19986">
        <ele>38.89</ele>
        <time>2022-08-31T12:41:21Z</time>
      </trkpt>
      <trkpt lat="49.28859" lon="1.19983">
        <ele>39.03</ele>
        <time>2022-08-31T12:41:22Z</time>
      </trkpt>
      <trkpt lat="49.28871" lon="1.19951">
        <ele>40.13</ele>
        <time>2022-08-31T12:41:34Z</time>
      </trkpt>
      <trkpt lat="49.28873" lon="1.1995">
        <ele>40.19</ele>
        <time>2022-08-31T12:41:35Z</time>
      </trkpt>
      <trkpt lat="49.28875" lon="1.19953">
        <ele>40.28</ele>
        <time>2022-08-31T12:41:36Z</time>
      </trkpt>
      <trkpt lat="49.28873" lon="1.19954">
        <ele>41.82</ele>
        <time>2022-08-31T12:41:50Z</time>
      </trkpt>
      <trkpt lat="49.28874" lon="1.19956">
        <ele>42.06</ele>
        <time>2022-08-31T12:42:16Z</time>
      </trkpt>
      <trkpt lat="49.28876" lon="1.19957">
        <ele>41.93</ele>
        <time>2022-08-31T12:42:30Z</time>
      </trkpt>
      <trkpt lat="49.28877" lon="1.19957">
        <ele>41.71</ele>
        <time>2022-08-31T12:43:03Z</time>
      </trkpt>
      <trkpt lat="49.2888" lon="1.19957">
        <ele>41.72</ele>
        <time>2022-08-31T12:43:25Z</time>
      </trkpt>
      <trkpt lat="49.28875" lon="1.19962">
        <ele>42.24</ele>
        <time>2022-08-31T12:44:03Z</time>
      </trkpt>
      <trkpt lat="49.28876" lon="1.1992">
        <ele>44.48</ele>
        <time>2022-08-31T12:44:32Z</time>
      </trkpt>
      <trkpt lat="49.28876" lon="1.19918">
        <ele>44.66</ele>
        <time>2022-08-31T12:44:34Z</time>
      </trkpt>
      <trkpt lat="49.28875" lon="1.19906">
        <ele>46.15</ele>
        <time>2022-08-31T12:44:49Z</time>
      </trkpt>
      <trkpt lat="49.28866" lon="1.1988">
        <ele>48.6</ele>
        <time>2022-08-31T12:45:13Z</time>
      </trkpt>
      <trkpt lat="49.28863" lon="1.19861">
        <ele>50.63</ele>
        <time>2022-08-31T12:45:33Z</time>
      </trkpt>
      <trkpt lat="49.28861" lon="1.19846">
        <ele>52.63</ele>
        <time>2022-08-31T12:45:48Z</time>
      </trkpt>
      <trkpt lat="49.28857" lon="1.19821">
        <ele>55.83</ele>
        <time>2022-08-31T12:46:11Z</time>
      </trkpt>
      <trkpt lat="49.28853" lon="1.19801">
        <ele>58.99</ele>
        <time>2022-08-31T12:46:31Z</time>
      </trkpt>
      <trkpt lat="49.2885" lon="1.19784">
        <ele>61.76</ele>
        <time>2022-08-31T12:46:52Z</time>
      </trkpt>
      <trkpt lat="49.2885" lon="1.19781">
        <ele>61.92</ele>
        <time>2022-08-31T12:46:54Z</time>
      </trkpt>
      <trkpt lat="49.28848" lon="1.19771">
        <ele>62.64</ele>
        <time>2022-08-31T12:47:01Z</time>
      </trkpt>
      <trkpt lat="49.28846" lon="1.19749">
        <ele>65.08</ele>
        <time>2022-08-31T12:47:19Z</time>
      </trkpt>
      <trkpt lat="49.28846" lon="1.19744">
        <ele>65.76</ele>
        <time>2022-08-31T12:47:24Z</time>
      </trkpt>
      <trkpt lat="49.28847" lon="1.19741">
        <ele>66.27</ele>
        <time>2022-08-31T12:47:28Z</time>
      </trkpt>
      <trkpt lat="49.28848" lon="1.19742">
        <ele>66.6</ele>
        <time>2022-08-31T12:47:31Z</time>
      </trkpt>
      <trkpt lat="49.28852" lon="1.19738">
        <ele>67.71</ele>
        <time>2022-08-31T12:47:39Z</time>
      </trkpt>
      <trkpt lat="49.28849" lon="1.19743">
        <ele>68.36</ele>
        <time>2022-08-31T12:47:46Z</time>
      </trkpt>
      <trkpt lat="49.28853" lon="1.19722">
        <ele>70.59</ele>
        <time>2022-08-31T12:48:09Z</time>
      </trkpt>
      <trkpt lat="49.28854" lon="1.19692">
        <ele>73.13</ele>
        <time>2022-08-31T12:48:32Z</time>
      </trkpt>
      <trkpt lat="49.28854" lon="1.19674">
        <ele>74.16</ele>
        <time>2022-08-31T12:48:43Z</time>
      </trkpt>
      <trkpt lat="49.28857" lon="1.19646">
        <ele>76.64</ele>
        <time>2022-08-31T12:49:07Z</time>
      </trkpt>
      <trkpt lat="49.28853" lon="1.19621">
        <ele>79.62</ele>
        <time>2022-08-31T12:49:26Z</time>
      </trkpt>
      <trkpt lat="49.28844" lon="1.19606">
        <ele>81.98</ele>
        <time>2022-08-31T12:49:45Z</time>
      </trkpt>
      <trkpt lat="49.28837" lon="1.19586">
        <ele>83.52</ele>
        <time>2022-08-31T12:50:03Z</time>
      </trkpt>
      <trkpt lat="49.28832" lon="1.19558">
        <ele>85.23</ele>
        <time>2022-08-31T12:50:26Z</time>
      </trkpt>
      <trkpt lat="49.28823" lon="1.19521">
        <ele>87.11</ele>
        <time>2022-08-31T12:50:53Z</time>
      </trkpt>
      <trkpt lat="49.28813" lon="1.19487">
        <ele>88.49</ele>
        <time>2022-08-31T12:51:16Z</time>
      </trkpt>
      <trkpt lat="49.28801" lon="1.19448">
        <ele>89.6</ele>
        <time>2022-08-31T12:51:40Z</time>
        <extensions>
          <visugpx:TrkExtension xmlns:visugpx="https://www.visugpx.com/editgpx/">
            <visugpx:node>2</visugpx:node>
            </visugpx:TrkExtension>
        </extensions>
      </trkpt>
      <trkpt lat="49.28793" lon="1.19419">
        <ele>79.4</ele>
      </trkpt>
      <trkpt lat="49.28804" lon="1.19419">
        <ele>79</ele>
      </trkpt>
      <trkpt lat="49.28823" lon="1.19415">
        <ele>79</ele>
      </trkpt>
      <trkpt lat="49.28847" lon="1.19409">
        <ele>78.9</ele>
      </trkpt>
      <trkpt lat="49.28857" lon="1.19406">
        <ele>78.7</ele>
      </trkpt>
      <trkpt lat="49.28863" lon="1.19408">
        <ele>78.7</ele>
      </trkpt>
      <trkpt lat="49.28869" lon="1.19414">
        <ele>78.9</ele>
      </trkpt>
      <trkpt lat="49.28885" lon="1.19426">
        <ele>78.7</ele>
      </trkpt>
      <trkpt lat="49.289" lon="1.19439">
        <ele>78.5</ele>
      </trkpt>
      <trkpt lat="49.28916" lon="1.19455">
        <ele>78.6</ele>
      </trkpt>
      <trkpt lat="49.28925" lon="1.19465">
        <ele>78.3</ele>
      </trkpt>
      <trkpt lat="49.28934" lon="1.19471">
        <ele>78</ele>
      </trkpt>
      <trkpt lat="49.28943" lon="1.19475">
        <ele>77.9</ele>
      </trkpt>
      <trkpt lat="49.28951" lon="1.19475">
        <ele>77.9</ele>
      </trkpt>
      <trkpt lat="49.28959" lon="1.19472">
        <ele>78</ele>
      </trkpt>
      <trkpt lat="49.28967" lon="1.19468">
        <ele>78.2</ele>
      </trkpt>
      <trkpt lat="49.28977" lon="1.19466">
        <ele>78.2</ele>
      </trkpt>
      <trkpt lat="49.28987" lon="1.19465">
        <ele>78.3</ele>
      </trkpt>
      <trkpt lat="49.28996" lon="1.19463">
        <ele>78.3</ele>
      </trkpt>
      <trkpt lat="49.29005" lon="1.19461">
        <ele>78.4</ele>
      </trkpt>
      <trkpt lat="49.29014" lon="1.19457">
        <ele>78.5</ele>
      </trkpt>
      <trkpt lat="49.29022" lon="1.19455">
        <ele>78.6</ele>
      </trkpt>
      <trkpt lat="49.29028" lon="1.19455">
        <ele>78.6</ele>
      </trkpt>
      <trkpt lat="49.29037" lon="1.19456">
        <ele>78.6</ele>
      </trkpt>
      <trkpt lat="49.29045" lon="1.19455">
        <ele>78.6</ele>
      </trkpt>
      <trkpt lat="49.29054" lon="1.19449">
        <ele>78.8</ele>
      </trkpt>
      <trkpt lat="49.29061" lon="1.19446">
        <ele>78.9</ele>
      </trkpt>
      <trkpt lat="49.29073" lon="1.19443">
        <ele>79</ele>
      </trkpt>
      <trkpt lat="49.29082" lon="1.1944">
        <ele>79</ele>
      </trkpt>
      <trkpt lat="49.29088" lon="1.19435">
        <ele>79</ele>
      </trkpt>
      <trkpt lat="49.29093" lon="1.19428">
        <ele>79</ele>
      </trkpt>
      <trkpt lat="49.29094" lon="1.19429">
        <ele>79</ele>
        <extensions>
          <visugpx:TrkExtension xmlns:visugpx="https://www.visugpx.com/editgpx/">
            <visugpx:node>5</visugpx:node>
            </visugpx:TrkExtension>
        </extensions>
      </trkpt>
      <trkpt lat="49.29093" lon="1.19428">
        <ele>79</ele>
      </trkpt>
      <trkpt lat="49.29073" lon="1.19339">
        <ele>78.7</ele>
      </trkpt>
      <trkpt lat="49.29062" lon="1.19284">
        <ele>77.2</ele>
      </trkpt>
      <trkpt lat="49.29058" lon="1.19279">
        <ele>77</ele>
      </trkpt>
      <trkpt lat="49.29057" lon="1.19275">
        <ele>77</ele>
      </trkpt>
      <trkpt lat="49.29039" lon="1.19201">
        <ele>75.7</ele>
      </trkpt>
      <trkpt lat="49.29014" lon="1.19096">
        <ele>72.2</ele>
      </trkpt>
      <trkpt lat="49.28995" lon="1.19016">
        <ele>70</ele>
      </trkpt>
      <trkpt lat="49.28988" lon="1.18972">
        <ele>70.4</ele>
        <extensions>
          <visugpx:TrkExtension xmlns:visugpx="https://www.visugpx.com/editgpx/">
            <visugpx:node>6</visugpx:node>
            </visugpx:TrkExtension>
        </extensions>
      </trkpt>
      <trkpt lat="49.28993" lon="1.18964">
        <ele>82.25</ele>
        <time>2022-08-31T13:00:13Z</time>
        <extensions>
          <visugpx:TrkExtension xmlns:visugpx="https://www.visugpx.com/editgpx/">
            <visugpx:node>2</visugpx:node>
            </visugpx:TrkExtension>
        </extensions>
      </trkpt>
      <trkpt lat="49.29006" lon="1.18953">
        <ele>81.52</ele>
        <time>2022-08-31T13:00:29Z</time>
      </trkpt>
      <trkpt lat="49.29019" lon="1.18944">
        <ele>80.98</ele>
        <time>2022-08-31T13:00:43Z</time>
      </trkpt>
      <trkpt lat="49.29045" lon="1.18939">
        <ele>80.88</ele>
        <time>2022-08-31T13:01:01Z</time>
      </trkpt>
      <trkpt lat="49.29054" lon="1.18932">
        <ele>80.06</ele>
        <time>2022-08-31T13:01:28Z</time>
      </trkpt>
      <trkpt lat="49.29066" lon="1.18928">
        <ele>79.93</ele>
        <time>2022-08-31T13:01:47Z</time>
      </trkpt>
      <trkpt lat="49.2909" lon="1.18922">
        <ele>79.49</ele>
        <time>2022-08-31T13:02:04Z</time>
      </trkpt>
      <trkpt lat="49.29106" lon="1.18914">
        <ele>79</ele>
        <time>2022-08-31T13:02:19Z</time>
      </trkpt>
      <trkpt lat="49.29125" lon="1.18905">
        <ele>78.59</ele>
        <time>2022-08-31T13:02:33Z</time>
      </trkpt>
      <trkpt lat="49.29136" lon="1.18898">
        <ele>78.41</ele>
        <time>2022-08-31T13:02:43Z</time>
      </trkpt>
      <trkpt lat="49.29151" lon="1.18884">
        <ele>77.5</ele>
        <time>2022-08-31T13:02:59Z</time>
      </trkpt>
      <trkpt lat="49.29169" lon="1.18863">
        <ele>76.53</ele>
        <time>2022-08-31T13:03:20Z</time>
      </trkpt>
      <trkpt lat="49.29182" lon="1.18845">
        <ele>75.72</ele>
        <time>2022-08-31T13:03:36Z</time>
      </trkpt>
      <trkpt lat="49.29184" lon="1.18843">
        <ele>75.55</ele>
        <time>2022-08-31T13:03:38Z</time>
      </trkpt>
      <trkpt lat="49.29188" lon="1.18835">
        <ele>74.98</ele>
        <time>2022-08-31T13:03:44Z</time>
      </trkpt>
      <trkpt lat="49.29195" lon="1.18815">
        <ele>73.85</ele>
        <time>2022-08-31T13:03:57Z</time>
      </trkpt>
      <trkpt lat="49.29205" lon="1.18801">
        <ele>73.35</ele>
        <time>2022-08-31T13:04:10Z</time>
      </trkpt>
      <trkpt lat="49.29218" lon="1.18781">
        <ele>72.87</ele>
        <time>2022-08-31T13:04:30Z</time>
      </trkpt>
      <trkpt lat="49.2922" lon="1.18766">
        <ele>72.4</ele>
        <time>2022-08-31T13:04:39Z</time>
      </trkpt>
      <trkpt lat="49.29233" lon="1.18737">
        <ele>71.69</ele>
        <time>2022-08-31T13:05:00Z</time>
      </trkpt>
      <trkpt lat="49.29241" lon="1.18725">
        <ele>70.76</ele>
        <time>2022-08-31T13:05:15Z</time>
      </trkpt>
      <trkpt lat="49.29242" lon="1.18721">
        <ele>70.63</ele>
        <time>2022-08-31T13:05:18Z</time>
      </trkpt>
      <trkpt lat="49.29252" lon="1.18699">
        <ele>70.41</ele>
        <time>2022-08-31T13:05:34Z</time>
      </trkpt>
      <trkpt lat="49.29255" lon="1.18689">
        <ele>70.24</ele>
        <time>2022-08-31T13:05:40Z</time>
      </trkpt>
      <trkpt lat="49.29263" lon="1.18669">
        <ele>70</ele>
        <time>2022-08-31T13:05:53Z</time>
      </trkpt>
      <trkpt lat="49.2927" lon="1.18657">
        <ele>69.54</ele>
        <time>2022-08-31T13:06:03Z</time>
      </trkpt>
      <trkpt lat="49.29285" lon="1.18635">
        <ele>68.63</ele>
        <time>2022-08-31T13:06:21Z</time>
      </trkpt>
      <trkpt lat="49.2929" lon="1.18613">
        <ele>68.09</ele>
        <time>2022-08-31T13:06:38Z</time>
      </trkpt>
      <trkpt lat="49.2929" lon="1.1861">
        <ele>67.46</ele>
        <time>2022-08-31T13:06:50Z</time>
      </trkpt>
      <trkpt lat="49.29294" lon="1.18601">
        <ele>67.44</ele>
        <time>2022-08-31T13:06:57Z</time>
      </trkpt>
      <trkpt lat="49.29295" lon="1.18598">
        <ele>67.43</ele>
        <time>2022-08-31T13:07:00Z</time>
      </trkpt>
      <trkpt lat="49.29301" lon="1.18577">
        <ele>67.07</ele>
        <time>2022-08-31T13:07:15Z</time>
      </trkpt>
      <trkpt lat="49.2931" lon="1.1855">
        <ele>66.21</ele>
        <time>2022-08-31T13:07:32Z</time>
      </trkpt>
      <trkpt lat="49.29312" lon="1.18544">
        <ele>66</ele>
        <time>2022-08-31T13:07:37Z</time>
      </trkpt>
      <trkpt lat="49.29314" lon="1.18538">
        <ele>65.81</ele>
        <time>2022-08-31T13:07:41Z</time>
      </trkpt>
      <trkpt lat="49.29316" lon="1.1853">
        <ele>65.57</ele>
        <time>2022-08-31T13:07:47Z</time>
      </trkpt>
      <trkpt lat="49.29319" lon="1.18517">
        <ele>65.31</ele>
        <time>2022-08-31T13:07:56Z</time>
      </trkpt>
      <trkpt lat="49.29329" lon="1.1849">
        <ele>64.64</ele>
        <time>2022-08-31T13:08:16Z</time>
      </trkpt>
      <trkpt lat="49.29338" lon="1.18466">
        <ele>63.81</ele>
        <time>2022-08-31T13:08:35Z</time>
      </trkpt>
      <trkpt lat="49.29347" lon="1.18445">
        <ele>63.39</ele>
        <time>2022-08-31T13:08:49Z</time>
      </trkpt>
      <trkpt lat="49.29348" lon="1.18438">
        <ele>63.21</ele>
        <time>2022-08-31T13:08:53Z</time>
      </trkpt>
      <trkpt lat="49.29361" lon="1.18415">
        <ele>62.69</ele>
        <time>2022-08-31T13:09:10Z</time>
      </trkpt>
      <trkpt lat="49.2937" lon="1.18389">
        <ele>61.94</ele>
        <time>2022-08-31T13:09:27Z</time>
      </trkpt>
      <trkpt lat="49.29371" lon="1.18363">
        <ele>61.29</ele>
        <time>2022-08-31T13:09:41Z</time>
      </trkpt>
      <trkpt lat="49.2938" lon="1.18331">
        <ele>60.63</ele>
        <time>2022-08-31T13:09:58Z</time>
      </trkpt>
      <trkpt lat="49.29383" lon="1.18329">
        <ele>60.58</ele>
        <time>2022-08-31T13:10:02Z</time>
      </trkpt>
      <trkpt lat="49.29389" lon="1.18301">
        <ele>58.99</ele>
        <time>2022-08-31T13:10:18Z</time>
      </trkpt>
      <trkpt lat="49.29393" lon="1.18288">
        <ele>58.55</ele>
        <time>2022-08-31T13:10:34Z</time>
      </trkpt>
      <trkpt lat="49.2941" lon="1.18264">
        <ele>57.87</ele>
        <time>2022-08-31T13:11:00Z</time>
      </trkpt>
      <trkpt lat="49.29421" lon="1.1823">
        <ele>56.65</ele>
        <time>2022-08-31T13:11:25Z</time>
      </trkpt>
      <trkpt lat="49.29435" lon="1.18199">
        <ele>55.73</ele>
        <time>2022-08-31T13:11:46Z</time>
      </trkpt>
      <trkpt lat="49.2944" lon="1.18175">
        <ele>55.09</ele>
        <time>2022-08-31T13:12:03Z</time>
      </trkpt>
      <trkpt lat="49.29454" lon="1.18152">
        <ele>54.36</ele>
        <time>2022-08-31T13:12:20Z</time>
      </trkpt>
      <trkpt lat="49.29456" lon="1.18148">
        <ele>54.25</ele>
        <time>2022-08-31T13:12:23Z</time>
      </trkpt>
      <trkpt lat="49.29463" lon="1.18129">
        <ele>54.04</ele>
        <time>2022-08-31T13:12:34Z</time>
      </trkpt>
      <trkpt lat="49.29466" lon="1.18123">
        <ele>53.63</ele>
        <time>2022-08-31T13:12:38Z</time>
      </trkpt>
      <trkpt lat="49.29477" lon="1.18101">
        <ele>53.13</ele>
        <time>2022-08-31T13:12:56Z</time>
      </trkpt>
      <trkpt lat="49.29493" lon="1.18082">
        <ele>52.8</ele>
        <time>2022-08-31T13:13:12Z</time>
      </trkpt>
      <trkpt lat="49.29497" lon="1.18075">
        <ele>52.69</ele>
        <time>2022-08-31T13:13:19Z</time>
      </trkpt>
      <trkpt lat="49.29509" lon="1.18057">
        <ele>52.07</ele>
        <time>2022-08-31T13:13:38Z</time>
      </trkpt>
      <trkpt lat="49.29521" lon="1.1804">
        <ele>51.27</ele>
        <time>2022-08-31T13:13:55Z</time>
      </trkpt>
      <trkpt lat="49.29522" lon="1.18033">
        <ele>51.01</ele>
        <time>2022-08-31T13:14:00Z</time>
      </trkpt>
      <trkpt lat="49.29563" lon="1.17983">
        <ele>50.92</ele>
        <time>2022-08-31T13:15:54Z</time>
      </trkpt>
      <trkpt lat="49.29579" lon="1.17959">
        <ele>48.08</ele>
        <time>2022-08-31T13:16:14Z</time>
      </trkpt>
      <trkpt lat="49.29594" lon="1.17945">
        <ele>47.26</ele>
        <time>2022-08-31T13:16:29Z</time>
      </trkpt>
      <trkpt lat="49.29606" lon="1.17926">
        <ele>46.83</ele>
        <time>2022-08-31T13:16:44Z</time>
      </trkpt>
      <trkpt lat="49.29606" lon="1.17924">
        <ele>46.81</ele>
        <time>2022-08-31T13:16:45Z</time>
      </trkpt>
      <trkpt lat="49.29623" lon="1.17906">
        <ele>46.18</ele>
        <time>2022-08-31T13:17:02Z</time>
      </trkpt>
      <trkpt lat="49.29637" lon="1.17884">
        <ele>45.79</ele>
        <time>2022-08-31T13:17:18Z</time>
      </trkpt>
      <trkpt lat="49.29646" lon="1.17868">
        <ele>45.6</ele>
        <time>2022-08-31T13:17:33Z</time>
      </trkpt>
      <trkpt lat="49.29646" lon="1.17863">
        <ele>45.51</ele>
        <time>2022-08-31T13:17:43Z</time>
      </trkpt>
      <trkpt lat="49.2965" lon="1.1786">
        <ele>45.45</ele>
        <time>2022-08-31T13:17:46Z</time>
      </trkpt>
      <trkpt lat="49.29651" lon="1.17857">
        <ele>45.4</ele>
        <time>2022-08-31T13:17:50Z</time>
      </trkpt>
      <trkpt lat="49.29665" lon="1.17827">
        <ele>45.3</ele>
        <time>2022-08-31T13:18:10Z</time>
      </trkpt>
      <trkpt lat="49.29669" lon="1.17813">
        <ele>45.21</ele>
        <time>2022-08-31T13:18:23Z</time>
      </trkpt>
      <trkpt lat="49.29687" lon="1.17798">
        <ele>44.81</ele>
        <time>2022-08-31T13:18:38Z</time>
      </trkpt>
      <trkpt lat="49.29693" lon="1.17794">
        <ele>44.71</ele>
        <time>2022-08-31T13:18:44Z</time>
      </trkpt>
      <trkpt lat="49.29698" lon="1.17788">
        <ele>44.69</ele>
        <time>2022-08-31T13:18:48Z</time>
      </trkpt>
      <trkpt lat="49.29715" lon="1.17771">
        <ele>44.75</ele>
        <time>2022-08-31T13:19:05Z</time>
      </trkpt>
      <trkpt lat="49.29723" lon="1.17755">
        <ele>44.64</ele>
        <time>2022-08-31T13:19:22Z</time>
      </trkpt>
      <trkpt lat="49.29724" lon="1.17755">
        <ele>44.62</ele>
        <time>2022-08-31T13:19:23Z</time>
      </trkpt>
      <trkpt lat="49.29738" lon="1.17747">
        <ele>44.49</ele>
        <time>2022-08-31T13:19:32Z</time>
      </trkpt>
      <trkpt lat="49.2975" lon="1.17721">
        <ele>44.62</ele>
        <time>2022-08-31T13:19:52Z</time>
      </trkpt>
      <trkpt lat="49.29748" lon="1.17715">
        <ele>44.73</ele>
        <time>2022-08-31T13:19:58Z</time>
      </trkpt>
      <trkpt lat="49.2975" lon="1.17707">
        <ele>45</ele>
        <time>2022-08-31T13:20:19Z</time>
      </trkpt>
      <trkpt lat="49.2977" lon="1.17674">
        <ele>45.51</ele>
        <time>2022-08-31T13:20:48Z</time>
      </trkpt>
      <trkpt lat="49.29808" lon="1.17639">
        <ele>46.28</ele>
        <time>2022-08-31T13:21:10Z</time>
      </trkpt>
      <trkpt lat="49.29809" lon="1.17646">
        <ele>46.4</ele>
        <time>2022-08-31T13:21:13Z</time>
      </trkpt>
      <trkpt lat="49.29817" lon="1.17652">
        <ele>46.59</ele>
        <time>2022-08-31T13:21:17Z</time>
      </trkpt>
      <trkpt lat="49.29829" lon="1.17632">
        <ele>47.43</ele>
        <time>2022-08-31T13:21:34Z</time>
      </trkpt>
      <trkpt lat="49.29845" lon="1.17618">
        <ele>47.72</ele>
        <time>2022-08-31T13:21:50Z</time>
      </trkpt>
      <trkpt lat="49.29853" lon="1.17608">
        <ele>48.06</ele>
        <time>2022-08-31T13:22:00Z</time>
      </trkpt>
      <trkpt lat="49.29857" lon="1.17598">
        <ele>48.24</ele>
        <time>2022-08-31T13:22:06Z</time>
      </trkpt>
      <trkpt lat="49.29871" lon="1.17576">
        <ele>48.89</ele>
        <time>2022-08-31T13:22:25Z</time>
      </trkpt>
      <trkpt lat="49.29869" lon="1.17545">
        <ele>49.27</ele>
        <time>2022-08-31T13:22:42Z</time>
      </trkpt>
      <trkpt lat="49.29873" lon="1.17527">
        <ele>48.59</ele>
        <time>2022-08-31T13:22:54Z</time>
      </trkpt>
      <trkpt lat="49.29885" lon="1.17513">
        <ele>48.36</ele>
        <time>2022-08-31T13:23:11Z</time>
      </trkpt>
      <trkpt lat="49.29891" lon="1.17502">
        <ele>47.96</ele>
        <time>2022-08-31T13:23:21Z</time>
      </trkpt>
      <trkpt lat="49.29894" lon="1.17496">
        <ele>47.92</ele>
        <time>2022-08-31T13:23:24Z</time>
      </trkpt>
      <trkpt lat="49.29906" lon="1.17478">
        <ele>47.65</ele>
        <time>2022-08-31T13:23:38Z</time>
      </trkpt>
      <trkpt lat="49.29916" lon="1.17447">
        <ele>47.62</ele>
        <time>2022-08-31T13:24:00Z</time>
      </trkpt>
      <trkpt lat="49.29927" lon="1.17408">
        <ele>47.19</ele>
        <time>2022-08-31T13:24:26Z</time>
      </trkpt>
      <trkpt lat="49.29946" lon="1.17366">
        <ele>46.51</ele>
        <time>2022-08-31T13:24:56Z</time>
      </trkpt>
      <trkpt lat="49.29954" lon="1.1733">
        <ele>46.04</ele>
        <time>2022-08-31T13:25:20Z</time>
      </trkpt>
      <trkpt lat="49.29959" lon="1.17313">
        <ele>45.75</ele>
        <time>2022-08-31T13:25:32Z</time>
      </trkpt>
      <trkpt lat="49.2996" lon="1.17309">
        <ele>45.71</ele>
        <time>2022-08-31T13:25:34Z</time>
      </trkpt>
      <trkpt lat="49.29965" lon="1.17278">
        <ele>45.26</ele>
        <time>2022-08-31T13:25:53Z</time>
      </trkpt>
      <trkpt lat="49.29971" lon="1.17269">
        <ele>44.79</ele>
        <time>2022-08-31T13:26:08Z</time>
      </trkpt>
      <trkpt lat="49.29981" lon="1.17253">
        <ele>44.51</ele>
        <time>2022-08-31T13:26:26Z</time>
      </trkpt>
      <trkpt lat="49.29989" lon="1.17217">
        <ele>44.84</ele>
        <time>2022-08-31T13:26:47Z</time>
      </trkpt>
      <trkpt lat="49.30002" lon="1.17203">
        <ele>44.52</ele>
        <time>2022-08-31T13:27:06Z</time>
      </trkpt>
      <trkpt lat="49.30003" lon="1.17203">
        <ele>44.48</ele>
        <time>2022-08-31T13:27:07Z</time>
      </trkpt>
      <trkpt lat="49.30028" lon="1.17211">
        <ele>42.99</ele>
        <time>2022-08-31T13:27:27Z</time>
      </trkpt>
      <trkpt lat="49.30049" lon="1.17207">
        <ele>42.01</ele>
        <time>2022-08-31T13:27:45Z</time>
      </trkpt>
      <trkpt lat="49.30056" lon="1.17207">
        <ele>41.33</ele>
        <time>2022-08-31T13:27:52Z</time>
      </trkpt>
      <trkpt lat="49.30083" lon="1.17216">
        <ele>40.41</ele>
        <time>2022-08-31T13:28:15Z</time>
      </trkpt>
      <trkpt lat="49.30095" lon="1.1724">
        <ele>39.22</ele>
        <time>2022-08-31T13:28:33Z</time>
      </trkpt>
      <trkpt lat="49.30103" lon="1.17258">
        <ele>38.29</ele>
        <time>2022-08-31T13:28:51Z</time>
      </trkpt>
      <trkpt lat="49.30114" lon="1.17271">
        <ele>37.76</ele>
        <time>2022-08-31T13:29:05Z</time>
      </trkpt>
      <trkpt lat="49.30127" lon="1.17273">
        <ele>36.96</ele>
        <time>2022-08-31T13:29:20Z</time>
      </trkpt>
      <trkpt lat="49.3015" lon="1.17277">
        <ele>35.49</ele>
        <time>2022-08-31T13:29:43Z</time>
      </trkpt>
      <trkpt lat="49.30177" lon="1.17283">
        <ele>35.18</ele>
        <time>2022-08-31T13:30:01Z</time>
      </trkpt>
      <trkpt lat="49.30197" lon="1.17278">
        <ele>34.43</ele>
        <time>2022-08-31T13:30:16Z</time>
      </trkpt>
      <trkpt lat="49.3021" lon="1.17266">
        <ele>34.4</ele>
        <time>2022-08-31T13:30:32Z</time>
      </trkpt>
      <trkpt lat="49.30225" lon="1.17257">
        <ele>34.59</ele>
        <time>2022-08-31T13:30:48Z</time>
      </trkpt>
      <trkpt lat="49.3023" lon="1.17254">
        <ele>34.59</ele>
        <time>2022-08-31T13:30:53Z</time>
      </trkpt>
      <trkpt lat="49.30234" lon="1.17255">
        <ele>34.26</ele>
        <time>2022-08-31T13:31:01Z</time>
      </trkpt>
      <trkpt lat="49.30227" lon="1.17267">
        <ele>34.34</ele>
        <time>2022-08-31T13:31:14Z</time>
      </trkpt>
      <trkpt lat="49.30231" lon="1.17295">
        <ele>33.14</ele>
        <time>2022-08-31T13:31:34Z</time>
      </trkpt>
      <trkpt lat="49.30249" lon="1.17316">
        <ele>31.75</ele>
        <time>2022-08-31T13:31:57Z</time>
      </trkpt>
      <trkpt lat="49.30257" lon="1.1732">
        <ele>31.36</ele>
        <time>2022-08-31T13:32:04Z</time>
      </trkpt>
      <trkpt lat="49.30266" lon="1.17338">
        <ele>31.08</ele>
        <time>2022-08-31T13:32:24Z</time>
      </trkpt>
      <trkpt lat="49.30278" lon="1.17344">
        <ele>28.75</ele>
        <time>2022-08-31T13:32:44Z</time>
      </trkpt>
      <trkpt lat="49.303" lon="1.17359">
        <ele>27.89</ele>
        <time>2022-08-31T13:33:00Z</time>
      </trkpt>
      <trkpt lat="49.30317" lon="1.17375">
        <ele>25</ele>
        <time>2022-08-31T13:33:20Z</time>
      </trkpt>
      <trkpt lat="49.30335" lon="1.1738">
        <ele>22.7</ele>
        <time>2022-08-31T13:33:39Z</time>
      </trkpt>
      <trkpt lat="49.30343" lon="1.1737">
        <ele>21.39</ele>
        <time>2022-08-31T13:33:49Z</time>
      </trkpt>
      <trkpt lat="49.30341" lon="1.17362">
        <ele>20.99</ele>
        <time>2022-08-31T13:33:53Z</time>
      </trkpt>
      <trkpt lat="49.30335" lon="1.17336">
        <ele>20.36</ele>
        <time>2022-08-31T13:34:08Z</time>
      </trkpt>
      <trkpt lat="49.30337" lon="1.173">
        <ele>20.46</ele>
        <time>2022-08-31T13:34:30Z</time>
      </trkpt>
      <trkpt lat="49.3034" lon="1.17262">
        <ele>20.51</ele>
        <time>2022-08-31T13:34:53Z</time>
      </trkpt>
      <trkpt lat="49.30345" lon="1.17236">
        <ele>20.59</ele>
        <time>2022-08-31T13:35:10Z</time>
      </trkpt>
      <trkpt lat="49.30351" lon="1.17213">
        <ele>20.73</ele>
        <time>2022-08-31T13:35:26Z</time>
      </trkpt>
      <trkpt lat="49.30354" lon="1.17185">
        <ele>20.7</ele>
        <time>2022-08-31T13:35:43Z</time>
      </trkpt>
      <trkpt lat="49.30358" lon="1.17157">
        <ele>20.83</ele>
        <time>2022-08-31T13:36:02Z</time>
      </trkpt>
      <trkpt lat="49.30363" lon="1.17155">
        <ele>20.41</ele>
        <time>2022-08-31T13:36:21Z</time>
      </trkpt>
      <trkpt lat="49.30357" lon="1.17157">
        <ele>20.38</ele>
        <time>2022-08-31T13:36:48Z</time>
      </trkpt>
      <trkpt lat="49.30354" lon="1.17155">
        <ele>20.53</ele>
        <time>2022-08-31T13:37:32Z</time>
      </trkpt>
      <trkpt lat="49.30355" lon="1.17151">
        <ele>20.59</ele>
        <time>2022-08-31T13:38:08Z</time>
      </trkpt>
      <trkpt lat="49.3036" lon="1.17153">
        <ele>20.68</ele>
        <time>2022-08-31T13:38:34Z</time>
      </trkpt>
      <trkpt lat="49.30354" lon="1.17154">
        <ele>20.58</ele>
        <time>2022-08-31T13:39:22Z</time>
      </trkpt>
      <trkpt lat="49.30356" lon="1.17154">
        <ele>20.83</ele>
        <time>2022-08-31T13:39:55Z</time>
      </trkpt>
      <trkpt lat="49.30351" lon="1.17154">
        <ele>21.07</ele>
        <time>2022-08-31T13:40:33Z</time>
      </trkpt>
      <trkpt lat="49.30356" lon="1.17134">
        <ele>21.28</ele>
        <time>2022-08-31T13:41:02Z</time>
      </trkpt>
      <trkpt lat="49.30361" lon="1.17084">
        <ele>21.46</ele>
        <time>2022-08-31T13:41:32Z</time>
      </trkpt>
      <trkpt lat="49.30366" lon="1.17071">
        <ele>21.46</ele>
        <time>2022-08-31T13:41:43Z</time>
      </trkpt>
      <trkpt lat="49.30366" lon="1.17052">
        <ele>21.38</ele>
        <time>2022-08-31T13:41:55Z</time>
      </trkpt>
      <trkpt lat="49.3037" lon="1.1702">
        <ele>21.41</ele>
        <time>2022-08-31T13:42:16Z</time>
      </trkpt>
      <trkpt lat="49.30371" lon="1.16978">
        <ele>21.59</ele>
        <time>2022-08-31T13:42:42Z</time>
      </trkpt>
      <trkpt lat="49.30379" lon="1.16932">
        <ele>21.56</ele>
        <time>2022-08-31T13:43:06Z</time>
      </trkpt>
      <trkpt lat="49.30381" lon="1.16905">
        <ele>21.7</ele>
        <time>2022-08-31T13:43:23Z</time>
      </trkpt>
      <trkpt lat="49.30386" lon="1.16869">
        <ele>21.46</ele>
        <time>2022-08-31T13:43:44Z</time>
      </trkpt>
      <trkpt lat="49.30392" lon="1.16839">
        <ele>21.36</ele>
        <time>2022-08-31T13:44:03Z</time>
      </trkpt>
      <trkpt lat="49.30396" lon="1.16809">
        <ele>21.41</ele>
        <time>2022-08-31T13:44:24Z</time>
      </trkpt>
      <trkpt lat="49.30403" lon="1.16771">
        <ele>21.6</ele>
        <time>2022-08-31T13:44:47Z</time>
      </trkpt>
      <trkpt lat="49.30411" lon="1.1673">
        <ele>21.6</ele>
        <time>2022-08-31T13:45:12Z</time>
      </trkpt>
      <trkpt lat="49.30415" lon="1.16699">
        <ele>21.22</ele>
        <time>2022-08-31T13:45:35Z</time>
      </trkpt>
      <trkpt lat="49.30416" lon="1.16681">
        <ele>20.83</ele>
        <time>2022-08-31T13:45:53Z</time>
      </trkpt>
      <trkpt lat="49.30424" lon="1.16623">
        <ele>22.1</ele>
        <time>2022-08-31T13:46:23Z</time>
      </trkpt>
      <trkpt lat="49.30431" lon="1.16583">
        <ele>22.51</ele>
        <time>2022-08-31T13:46:48Z</time>
      </trkpt>
      <trkpt lat="49.30434" lon="1.16562">
        <ele>22.58</ele>
        <time>2022-08-31T13:47:06Z</time>
      </trkpt>
      <trkpt lat="49.30443" lon="1.16535">
        <ele>22.47</ele>
        <time>2022-08-31T13:47:27Z</time>
      </trkpt>
      <trkpt lat="49.30447" lon="1.16502">
        <ele>22.33</ele>
        <time>2022-08-31T13:47:48Z</time>
      </trkpt>
      <trkpt lat="49.30451" lon="1.1647">
        <ele>21.84</ele>
        <time>2022-08-31T13:48:17Z</time>
      </trkpt>
      <trkpt lat="49.30456" lon="1.16426">
        <ele>22.2</ele>
        <time>2022-08-31T13:48:42Z</time>
      </trkpt>
      <trkpt lat="49.30461" lon="1.16395">
        <ele>22.13</ele>
        <time>2022-08-31T13:49:07Z</time>
      </trkpt>
      <trkpt lat="49.30469" lon="1.16364">
        <ele>22.11</ele>
        <time>2022-08-31T13:49:34Z</time>
      </trkpt>
      <trkpt lat="49.30477" lon="1.16316">
        <ele>22.23</ele>
        <time>2022-08-31T13:50:01Z</time>
      </trkpt>
      <trkpt lat="49.30482" lon="1.16275">
        <ele>22.07</ele>
        <time>2022-08-31T13:50:27Z</time>
      </trkpt>
      <trkpt lat="49.30488" lon="1.16226">
        <ele>22</ele>
        <time>2022-08-31T13:50:59Z</time>
      </trkpt>
      <trkpt lat="49.30493" lon="1.16207">
        <ele>21.93</ele>
        <time>2022-08-31T13:51:11Z</time>
      </trkpt>
      <trkpt lat="49.30492" lon="1.16174">
        <ele>21.83</ele>
        <time>2022-08-31T13:51:28Z</time>
      </trkpt>
      <trkpt lat="49.30503" lon="1.1613">
        <ele>21.85</ele>
        <time>2022-08-31T13:51:54Z</time>
      </trkpt>
      <trkpt lat="49.30507" lon="1.16106">
        <ele>21.8</ele>
        <time>2022-08-31T13:52:05Z</time>
      </trkpt>
      <trkpt lat="49.30513" lon="1.16066">
        <ele>22.59</ele>
        <time>2022-08-31T13:52:24Z</time>
      </trkpt>
      <trkpt lat="49.30515" lon="1.16057">
        <ele>23.11</ele>
        <time>2022-08-31T13:52:30Z</time>
      </trkpt>
      <trkpt lat="49.3052" lon="1.16046">
        <ele>23.52</ele>
        <time>2022-08-31T13:52:37Z</time>
      </trkpt>
      <trkpt lat="49.30525" lon="1.16003">
        <ele>23.92</ele>
        <time>2022-08-31T13:53:02Z</time>
      </trkpt>
      <trkpt lat="49.30533" lon="1.15957">
        <ele>23.72</ele>
        <time>2022-08-31T13:53:28Z</time>
      </trkpt>
      <trkpt lat="49.30533" lon="1.15914">
        <ele>23.76</ele>
        <time>2022-08-31T13:53:49Z</time>
      </trkpt>
      <trkpt lat="49.30538" lon="1.15903">
        <ele>23.72</ele>
        <time>2022-08-31T13:53:56Z</time>
      </trkpt>
      <trkpt lat="49.30535" lon="1.15887">
        <ele>23.7</ele>
        <time>2022-08-31T13:54:09Z</time>
      </trkpt>
      <trkpt lat="49.30534" lon="1.15874">
        <ele>23.67</ele>
        <time>2022-08-31T13:54:15Z</time>
      </trkpt>
      <trkpt lat="49.30544" lon="1.15851">
        <ele>23.83</ele>
        <time>2022-08-31T13:54:31Z</time>
      </trkpt>
      <trkpt lat="49.30546" lon="1.15846">
        <ele>23.87</ele>
        <time>2022-08-31T13:54:36Z</time>
      </trkpt>
      <trkpt lat="49.30539" lon="1.15815">
        <ele>23.77</ele>
        <time>2022-08-31T13:54:51Z</time>
      </trkpt>
      <trkpt lat="49.3054" lon="1.1581">
        <ele>23.76</ele>
        <time>2022-08-31T13:54:54Z</time>
      </trkpt>
      <trkpt lat="49.30548" lon="1.15804">
        <ele>23.72</ele>
        <time>2022-08-31T13:55:00Z</time>
      </trkpt>
      <trkpt lat="49.30555" lon="1.15794">
        <ele>23.72</ele>
        <time>2022-08-31T13:55:17Z</time>
      </trkpt>
      <trkpt lat="49.30555" lon="1.15799">
        <ele>23.69</ele>
        <time>2022-08-31T13:55:26Z</time>
        <extensions>
          <visugpx:TrkExtension xmlns:visugpx="https://www.visugpx.com/editgpx/">
            <visugpx:node>1</visugpx:node>
            </visugpx:TrkExtension>
        </extensions>
      </trkpt>
    </trkseg>
  </trk>
</gpx>